PWSweather.com
Personal Weather Stations
Station Observations
ELGHEKO
El Gheko Neighborhood Association, Tucson, AZ 85710

El Gheko Neighborhood AssociationTucson, AZ 85710

Lat: 32.226108, Lon: -110.84443

Elevation: 2598

Station Type: Davis 6153 Vantage Pro 2

http://www.elgheko.us

High Low Average
Temperature 99.6°F37.6°C 78.4°F25.8°C 87.7°F30.9°C
Dew Point 66.0°F18.9°C 55.2°F12.9°C 62.1°F16.7°C
Winds 13.0 mph 20.9 kmh Calm Calm 3.0 mph S4.8 kmh S
Wind Gusts 20.0 mph32.2 kmh -- 7.0 mph11.3 kmh
Humidity 60% 25% 44%
Pressure 29.81 in1009.5 mb 29.66 in1004.4 mb -
Precipitation 0.01 in0.3 mm - -
Hour Temp Dew Point Humidity Winds Wind Gusts Pressure Precip Precip Rate Daily Precip Total
12:00 AM 85.0°F29.4°C 61.3°F16.3°C 45% 2.0 mph S3.2 kmh S 4.0 mph6.4 kmh 29.70 in1005.8 mb 0.00 in0.0 mm 0.00 in0.0 mm 0.00 in0.0 mm
12:01 AM 85.0°F29.4°C 61.0°F16.1°C 45% 2.0 mph S3.2 kmh S 4.0 mph6.4 kmh 29.70 in1005.8 mb 0.00 in0.0 mm 0.00 in0.0 mm 0.01 in0.3 mm
12:05 AM 85.0°F29.4°C 60.6°F15.9°C 44% 2.0 mph S3.2 kmh S 4.0 mph6.4 kmh 29.70 in1005.8 mb 0.00 in0.0 mm 0.00 in0.0 mm 0.00 in0.0 mm
12:06 AM 85.1°F29.5°C 61.0°F16.1°C 45% 2.0 mph S3.2 kmh S 4.0 mph6.4 kmh 29.70 in1005.8 mb 0.00 in0.0 mm 0.00 in0.0 mm 0.00 in0.0 mm
12:10 AM 85.0°F29.4°C 60.6°F15.9°C 44% 2.0 mph S3.2 kmh S 5.0 mph8.0 kmh 29.70 in1005.8 mb 0.00 in0.0 mm 0.00 in0.0 mm 0.00 in0.0 mm
12:11 AM 85.0°F29.4°C 61.0°F16.1°C 44% 2.0 mph S3.2 kmh S 5.0 mph8.0 kmh 29.70 in1005.8 mb 0.00 in0.0 mm 0.00 in0.0 mm 0.00 in0.0 mm
12:15 AM 85.1°F29.5°C 61.4°F16.3°C 45% 2.0 mph S3.2 kmh S 5.0 mph8.0 kmh 29.70 in1005.8 mb 0.00 in0.0 mm 0.00 in0.0 mm 0.00 in0.0 mm
12:16 AM 85.1°F29.5°C 61.0°F16.1°C 45% 1.0 mph S1.6 kmh S 5.0 mph8.0 kmh 29.70 in1005.8 mb 0.00 in0.0 mm 0.00 in0.0 mm 0.00 in0.0 mm
12:20 AM 85.1°F29.5°C 61.4°F16.3°C 45% 1.0 mph S1.6 kmh S 3.0 mph4.8 kmh 29.70 in1005.8 mb 0.00 in0.0 mm 0.00 in0.0 mm 0.00 in0.0 mm
12:21 AM 85.1°F29.5°C 61.0°F16.1°C 45% Calm Calm 3.0 mph4.8 kmh 29.70 in1005.8 mb 0.00 in0.0 mm 0.00 in0.0 mm 0.00 in0.0 mm
12:25 AM 85.1°F29.5°C 62.6°F17.0°C 47% 1.0 mph S1.6 kmh S 2.0 mph3.2 kmh 29.70 in1005.8 mb 0.00 in0.0 mm 0.00 in0.0 mm 0.00 in0.0 mm
12:26 AM 85.0°F29.4°C 63.0°F17.2°C 47% 2.0 mph S3.2 kmh S 2.0 mph3.2 kmh 29.71 in1006.1 mb 0.00 in0.0 mm 0.00 in0.0 mm 0.00 in0.0 mm
12:30 AM 84.9°F29.4°C 62.4°F16.9°C 47% 1.0 mph S1.6 kmh S 2.0 mph3.2 kmh 29.70 in1005.8 mb 0.00 in0.0 mm 0.00 in0.0 mm 0.00 in0.0 mm
12:31 AM 84.9°F29.4°C 62.0°F16.7°C 47% 1.0 mph S1.6 kmh S 2.0 mph3.2 kmh 29.70 in1005.8 mb 0.00 in0.0 mm 0.00 in0.0 mm 0.00 in0.0 mm
12:35 AM 84.6°F29.2°C 62.1°F16.7°C 47% 1.0 mph S1.6 kmh S 3.0 mph4.8 kmh 29.71 in1006.1 mb 0.00 in0.0 mm 0.00 in0.0 mm 0.00 in0.0 mm
12:36 AM 84.5°F29.2°C 62.0°F16.7°C 47% 1.0 mph SE1.6 kmh SE 3.0 mph4.8 kmh 29.71 in1006.1 mb 0.00 in0.0 mm 0.00 in0.0 mm 0.00 in0.0 mm
12:40 AM 84.3°F29.1°C 62.5°F16.9°C 48% 2.0 mph SSE3.2 kmh SSE 3.0 mph4.8 kmh 29.71 in1006.1 mb 0.00 in0.0 mm 0.00 in0.0 mm 0.00 in0.0 mm
12:41 AM 84.3°F29.1°C 62.0°F16.7°C 48% 3.0 mph SE4.8 kmh SE 3.0 mph4.8 kmh 29.71 in1006.1 mb 0.00 in0.0 mm 0.00 in0.0 mm 0.00 in0.0 mm
12:45 AM 84.2°F29.0°C 62.4°F16.9°C 48% 2.0 mph SE3.2 kmh SE 3.0 mph4.8 kmh 29.71 in1006.1 mb 0.00 in0.0 mm 0.00 in0.0 mm 0.00 in0.0 mm
12:46 AM 84.2°F29.0°C 62.0°F16.7°C 48% 1.0 mph SE1.6 kmh SE 3.0 mph4.8 kmh 29.71 in1006.1 mb 0.00 in0.0 mm 0.00 in0.0 mm 0.00 in0.0 mm
12:50 AM 84.1°F28.9°C 62.3°F16.8°C 48% 1.0 mph SE1.6 kmh SE 3.0 mph4.8 kmh 29.71 in1006.1 mb 0.00 in0.0 mm 0.00 in0.0 mm 0.00 in0.0 mm
12:51 AM 84.1°F28.9°C 62.0°F16.7°C 48% 1.0 mph SE1.6 kmh SE 3.0 mph4.8 kmh 29.71 in1006.1 mb 0.00 in0.0 mm 0.00 in0.0 mm 0.00 in0.0 mm
12:55 AM 84.0°F28.9°C 62.2°F16.8°C 48% 1.0 mph SE1.6 kmh SE 3.0 mph4.8 kmh 29.71 in1006.1 mb 0.00 in0.0 mm 0.00 in0.0 mm 0.00 in0.0 mm
12:56 AM 84.0°F28.9°C 62.0°F16.7°C 48% Calm Calm 2.0 mph3.2 kmh 29.71 in1006.1 mb 0.00 in0.0 mm 0.00 in0.0 mm 0.00 in0.0 mm
01:00 AM 83.9°F28.8°C 61.5°F16.4°C 47% 1.0 mph S1.6 kmh S 5.0 mph8.0 kmh 29.71 in1006.1 mb 0.00 in0.0 mm 0.00 in0.0 mm 0.00 in0.0 mm
01:01 AM 83.9°F28.8°C 62.0°F16.7°C 47% 2.0 mph S3.2 kmh S 5.0 mph8.0 kmh 29.71 in1006.1 mb 0.00 in0.0 mm 0.00 in0.0 mm 0.00 in0.0 mm
01:05 AM 83.9°F28.8°C 61.5°F16.4°C 47% 3.0 mph S4.8 kmh S 5.0 mph8.0 kmh 29.71 in1006.1 mb 0.00 in0.0 mm 0.00 in0.0 mm 0.00 in0.0 mm
01:06 AM 84.0°F28.9°C 62.0°F16.7°C 47% 1.0 mph SSW1.6 kmh SSW 5.0 mph8.0 kmh 29.71 in1006.1 mb 0.00 in0.0 mm 0.00 in0.0 mm 0.00 in0.0 mm
01:10 AM 84.1°F28.9°C 61.7°F16.5°C 47% 3.0 mph S4.8 kmh S 5.0 mph8.0 kmh 29.71 in1006.1 mb 0.00 in0.0 mm 0.00 in0.0 mm 0.00 in0.0 mm
01:11 AM 84.1°F28.9°C 62.0°F16.7°C 47% 1.0 mph SSW1.6 kmh SSW 5.0 mph8.0 kmh 29.71 in1006.1 mb 0.00 in0.0 mm 0.00 in0.0 mm 0.00 in0.0 mm
01:15 AM 84.3°F29.1°C 61.9°F16.6°C 47% 3.0 mph SSW4.8 kmh SSW 6.0 mph9.7 kmh 29.72 in1006.4 mb 0.00 in0.0 mm 0.00 in0.0 mm 0.00 in0.0 mm
01:16 AM 84.3°F29.1°C 62.0°F16.7°C 47% 3.0 mph SSW4.8 kmh SSW 6.0 mph9.7 kmh 29.72 in1006.4 mb 0.00 in0.0 mm 0.00 in0.0 mm 0.00 in0.0 mm
01:20 AM 84.5°F29.2°C 61.4°F16.3°C 46% 3.0 mph S4.8 kmh S 6.0 mph9.7 kmh 29.72 in1006.4 mb 0.00 in0.0 mm 0.00 in0.0 mm 0.00 in0.0 mm
01:21 AM 84.5°F29.2°C 61.0°F16.1°C 46% 3.0 mph S4.8 kmh S 6.0 mph9.7 kmh 29.72 in1006.4 mb 0.00 in0.0 mm 0.00 in0.0 mm 0.00 in0.0 mm
01:25 AM 84.7°F29.3°C 61.6°F16.4°C 46% 4.0 mph S6.4 kmh S 7.0 mph11.3 kmh 29.72 in1006.4 mb 0.00 in0.0 mm 0.00 in0.0 mm 0.00 in0.0 mm
01:26 AM 84.7°F29.3°C 62.0°F16.7°C 46% 3.0 mph S4.8 kmh S 7.0 mph11.3 kmh 29.72 in1006.4 mb 0.00 in0.0 mm 0.00 in0.0 mm 0.00 in0.0 mm
01:30 AM 84.8°F29.3°C 61.7°F16.5°C 46% 4.0 mph S6.4 kmh S 7.0 mph11.3 kmh 29.72 in1006.4 mb 0.00 in0.0 mm 0.00 in0.0 mm 0.00 in0.0 mm
01:31 AM 84.8°F29.3°C 62.0°F16.7°C 46% 4.0 mph SSW6.4 kmh SSW 7.0 mph11.3 kmh 29.72 in1006.4 mb 0.00 in0.0 mm 0.00 in0.0 mm 0.00 in0.0 mm
01:35 AM 84.8°F29.3°C 61.7°F16.5°C 46% 4.0 mph S6.4 kmh S 8.0 mph12.9 kmh 29.73 in1006.8 mb 0.00 in0.0 mm 0.00 in0.0 mm 0.00 in0.0 mm
01:36 AM 84.8°F29.3°C 62.0°F16.7°C 46% 4.0 mph S6.4 kmh S 8.0 mph12.9 kmh 29.73 in1006.8 mb 0.00 in0.0 mm 0.00 in0.0 mm 0.00 in0.0 mm
01:40 AM 84.8°F29.3°C 61.7°F16.5°C 46% 4.0 mph S6.4 kmh S 8.0 mph12.9 kmh 29.73 in1006.8 mb 0.00 in0.0 mm 0.00 in0.0 mm 0.00 in0.0 mm
01:41 AM 84.8°F29.3°C 62.0°F16.7°C 46% 4.0 mph S6.4 kmh S 8.0 mph12.9 kmh 29.73 in1006.8 mb 0.00 in0.0 mm 0.00 in0.0 mm 0.00 in0.0 mm
01:45 AM 84.7°F29.3°C 61.6°F16.4°C 46% 3.0 mph S4.8 kmh S 8.0 mph12.9 kmh 29.73 in1006.8 mb 0.00 in0.0 mm 0.00 in0.0 mm 0.00 in0.0 mm
01:46 AM 84.7°F29.3°C 62.0°F16.7°C 46% 4.0 mph SSE6.4 kmh SSE 7.0 mph11.3 kmh 29.73 in1006.8 mb 0.00 in0.0 mm 0.00 in0.0 mm 0.00 in0.0 mm
01:50 AM 84.7°F29.3°C 61.6°F16.4°C 46% 3.0 mph SSE4.8 kmh SSE 8.0 mph12.9 kmh 29.73 in1006.8 mb 0.00 in0.0 mm 0.00 in0.0 mm 0.00 in0.0 mm
01:51 AM 84.7°F29.3°C 62.0°F16.7°C 46% 1.0 mph SE1.6 kmh SE 7.0 mph11.3 kmh 29.73 in1006.8 mb 0.00 in0.0 mm 0.00 in0.0 mm 0.00 in0.0 mm
01:55 AM 84.6°F29.2°C 60.9°F16.1°C 45% 2.0 mph SE3.2 kmh SE 5.0 mph8.0 kmh 29.73 in1006.8 mb 0.00 in0.0 mm 0.00 in0.0 mm 0.00 in0.0 mm
01:56 AM 84.6°F29.2°C 62.0°F16.7°C 46% 1.0 mph SSE1.6 kmh SSE 5.0 mph8.0 kmh 29.73 in1006.8 mb 0.00 in0.0 mm 0.00 in0.0 mm 0.00 in0.0 mm
02:00 AM 84.5°F29.2°C 61.4°F16.3°C 46% 2.0 mph SE3.2 kmh SE 5.0 mph8.0 kmh 29.73 in1006.8 mb 0.00 in0.0 mm 0.00 in0.0 mm 0.00 in0.0 mm
02:01 AM 84.5°F29.2°C 61.0°F16.1°C 46% 2.0 mph SE3.2 kmh SE 5.0 mph8.0 kmh 29.73 in1006.8 mb 0.00 in0.0 mm 0.00 in0.0 mm 0.00 in0.0 mm
02:05 AM 84.5°F29.2°C 61.4°F16.3°C 46% 2.0 mph SE3.2 kmh SE 4.0 mph6.4 kmh 29.74 in1007.1 mb 0.00 in0.0 mm 0.00 in0.0 mm 0.00 in0.0 mm
02:06 AM 84.4°F29.1°C 61.0°F16.1°C 46% Calm Calm 4.0 mph6.4 kmh 29.74 in1007.1 mb 0.00 in0.0 mm 0.00 in0.0 mm 0.00 in0.0 mm
02:10 AM 84.4°F29.1°C 61.4°F16.3°C 46% 1.0 mph E1.6 kmh E 4.0 mph6.4 kmh 29.74 in1007.1 mb 0.00 in0.0 mm 0.00 in0.0 mm 0.00 in0.0 mm
02:11 AM 84.4°F29.1°C 61.0°F16.1°C 46% 1.0 mph E1.6 kmh E 4.0 mph6.4 kmh 29.74 in1007.1 mb 0.00 in0.0 mm 0.00 in0.0 mm 0.00 in0.0 mm
02:15 AM 84.3°F29.1°C 61.3°F16.3°C 46% 1.0 mph SSE1.6 kmh SSE 4.0 mph6.4 kmh 29.74 in1007.1 mb 0.00 in0.0 mm 0.00 in0.0 mm 0.00 in0.0 mm
02:16 AM 84.3°F29.1°C 61.0°F16.1°C 46% Calm Calm 4.0 mph6.4 kmh 29.74 in1007.1 mb 0.00 in0.0 mm 0.00 in0.0 mm 0.00 in0.0 mm
02:20 AM 84.1°F28.9°C 61.1°F16.2°C 46% 1.0 mph S1.6 kmh S 4.0 mph6.4 kmh 29.74 in1007.1 mb 0.00 in0.0 mm 0.00 in0.0 mm 0.00 in0.0 mm
02:21 AM 84.1°F28.9°C 61.0°F16.1°C 46% 1.0 mph S1.6 kmh S 4.0 mph6.4 kmh 29.74 in1007.1 mb 0.00 in0.0 mm 0.00 in0.0 mm 0.00 in0.0 mm
02:25 AM 84.0°F28.9°C 61.6°F16.4°C 47% 1.0 mph S1.6 kmh S 3.0 mph4.8 kmh 29.74 in1007.1 mb 0.00 in0.0 mm 0.00 in0.0 mm 0.00 in0.0 mm
02:26 AM 84.0°F28.9°C 62.0°F16.7°C 47% 1.0 mph S1.6 kmh S 2.0 mph3.2 kmh 29.74 in1007.1 mb 0.00 in0.0 mm 0.00 in0.0 mm 0.00 in0.0 mm
02:30 AM 83.9°F28.8°C 61.5°F16.4°C 47% 1.0 mph S1.6 kmh S 2.0 mph3.2 kmh 29.74 in1007.1 mb 0.00 in0.0 mm 0.00 in0.0 mm 0.00 in0.0 mm
02:31 AM 83.9°F28.8°C 62.0°F16.7°C 47% 2.0 mph S3.2 kmh S 2.0 mph3.2 kmh 29.74 in1007.1 mb 0.00 in0.0 mm 0.00 in0.0 mm 0.00 in0.0 mm
02:35 AM 83.8°F28.8°C 61.4°F16.3°C 47% 1.0 mph S1.6 kmh S 3.0 mph4.8 kmh 29.74 in1007.1 mb 0.00 in0.0 mm 0.00 in0.0 mm 0.00 in0.0 mm
02:36 AM 83.7°F28.7°C 61.0°F16.1°C 47% 1.0 mph S1.6 kmh S 3.0 mph4.8 kmh 29.74 in1007.1 mb 0.00 in0.0 mm 0.00 in0.0 mm 0.00 in0.0 mm
02:40 AM 83.6°F28.7°C 61.2°F16.2°C 47% 1.0 mph S1.6 kmh S 3.0 mph4.8 kmh 29.74 in1007.1 mb 0.00 in0.0 mm 0.00 in0.0 mm 0.00 in0.0 mm
02:41 AM 83.6°F28.7°C 61.0°F16.1°C 47% Calm Calm 2.0 mph3.2 kmh 29.74 in1007.1 mb 0.00 in0.0 mm 0.00 in0.0 mm 0.00 in0.0 mm
02:45 AM 83.5°F28.6°C 61.7°F16.5°C 48% Calm Calm 2.0 mph3.2 kmh 29.74 in1007.1 mb 0.00 in0.0 mm 0.00 in0.0 mm 0.00 in0.0 mm
02:46 AM 83.5°F28.6°C 62.0°F16.7°C 48% 2.0 mph S3.2 kmh S 2.0 mph3.2 kmh 29.74 in1007.1 mb 0.00 in0.0 mm 0.00 in0.0 mm 0.00 in0.0 mm
02:50 AM 83.4°F28.6°C 62.2°F16.8°C 49% 1.0 mph S1.6 kmh S 2.0 mph3.2 kmh 29.74 in1007.1 mb 0.00 in0.0 mm 0.00 in0.0 mm 0.00 in0.0 mm
02:51 AM 83.4°F28.6°C 62.0°F16.7°C 49% 1.0 mph S1.6 kmh S 2.0 mph3.2 kmh 29.74 in1007.1 mb 0.00 in0.0 mm 0.00 in0.0 mm 0.00 in0.0 mm
02:55 AM 83.2°F28.4°C 62.1°F16.7°C 49% 2.0 mph S3.2 kmh S 3.0 mph4.8 kmh 29.74 in1007.1 mb 0.00 in0.0 mm 0.00 in0.0 mm 0.00 in0.0 mm
02:56 AM 83.2°F28.4°C 62.0°F16.7°C 49% 2.0 mph S3.2 kmh S 3.0 mph4.8 kmh 29.74 in1007.1 mb 0.00 in0.0 mm 0.00 in0.0 mm 0.00 in0.0 mm
03:00 AM 83.2°F28.4°C 62.6°F17.0°C 50% 2.0 mph S3.2 kmh S 3.0 mph4.8 kmh 29.74 in1007.1 mb 0.00 in0.0 mm 0.00 in0.0 mm 0.00 in0.0 mm
03:01 AM 83.2°F28.4°C 63.0°F17.2°C 50% Calm Calm 3.0 mph4.8 kmh 29.74 in1007.1 mb 0.00 in0.0 mm 0.00 in0.0 mm 0.00 in0.0 mm
03:05 AM 83.2°F28.4°C 62.6°F17.0°C 50% 1.0 mph S1.6 kmh S 3.0 mph4.8 kmh 29.74 in1007.1 mb 0.00 in0.0 mm 0.00 in0.0 mm 0.00 in0.0 mm
03:06 AM 83.2°F28.4°C 63.0°F17.2°C 50% Calm Calm 3.0 mph4.8 kmh 29.74 in1007.1 mb 0.00 in0.0 mm 0.00 in0.0 mm 0.00 in0.0 mm
03:10 AM 83.1°F28.4°C 62.5°F16.9°C 50% Calm Calm 1.0 mph1.6 kmh 29.74 in1007.1 mb 0.00 in0.0 mm 0.00 in0.0 mm 0.00 in0.0 mm
03:11 AM 83.1°F28.4°C 63.0°F17.2°C 50% Calm Calm -- 29.74 in1007.1 mb 0.00 in0.0 mm 0.00 in0.0 mm 0.00 in0.0 mm
03:15 AM 83.0°F28.3°C 63.0°F17.2°C 51% Calm Calm 2.0 mph3.2 kmh 29.74 in1007.1 mb 0.00 in0.0 mm 0.00 in0.0 mm 0.00 in0.0 mm
03:16 AM 82.9°F28.3°C 62.0°F16.7°C 50% 2.0 mph S3.2 kmh S 3.0 mph4.8 kmh 29.74 in1007.1 mb 0.00 in0.0 mm 0.00 in0.0 mm 0.00 in0.0 mm
03:20 AM 82.8°F28.2°C 62.8°F17.1°C 51% 1.0 mph SSE1.6 kmh SSE 3.0 mph4.8 kmh 29.74 in1007.1 mb 0.00 in0.0 mm 0.00 in0.0 mm 0.00 in0.0 mm
03:21 AM 82.8°F28.2°C 63.0°F17.2°C 51% 1.0 mph E1.6 kmh E 3.0 mph4.8 kmh 29.74 in1007.1 mb 0.00 in0.0 mm 0.00 in0.0 mm 0.00 in0.0 mm
03:25 AM 82.7°F28.2°C 61.0°F16.1°C 48% 2.0 mph SE3.2 kmh SE 4.0 mph6.4 kmh 29.74 in1007.1 mb 0.00 in0.0 mm 0.00 in0.0 mm 0.00 in0.0 mm
03:26 AM 82.7°F28.2°C 61.0°F16.1°C 48% 3.0 mph ESE4.8 kmh ESE 4.0 mph6.4 kmh 29.74 in1007.1 mb 0.00 in0.0 mm 0.00 in0.0 mm 0.00 in0.0 mm
03:30 AM 82.7°F28.2°C 61.0°F16.1°C 48% 2.0 mph SE3.2 kmh SE 4.0 mph6.4 kmh 29.74 in1007.1 mb 0.00 in0.0 mm 0.00 in0.0 mm 0.00 in0.0 mm
03:31 AM 82.7°F28.2°C 61.0°F16.1°C 48% 2.0 mph S3.2 kmh S 4.0 mph6.4 kmh 29.74 in1007.1 mb 0.00 in0.0 mm 0.00 in0.0 mm 0.00 in0.0 mm
03:35 AM 82.6°F28.1°C 60.9°F16.1°C 48% 2.0 mph SSE3.2 kmh SSE 5.0 mph8.0 kmh 29.74 in1007.1 mb 0.00 in0.0 mm 0.00 in0.0 mm 0.00 in0.0 mm
03:36 AM 82.7°F28.2°C 61.0°F16.1°C 48% 6.0 mph S9.7 kmh S 6.0 mph9.7 kmh 29.74 in1007.1 mb 0.00 in0.0 mm 0.00 in0.0 mm 0.00 in0.0 mm
03:40 AM 82.8°F28.2°C 61.1°F16.2°C 48% 3.0 mph S4.8 kmh S 7.0 mph11.3 kmh 29.74 in1007.1 mb 0.00 in0.0 mm 0.00 in0.0 mm 0.00 in0.0 mm
03:41 AM 82.8°F28.2°C 61.0°F16.1°C 48% 1.0 mph S1.6 kmh S 7.0 mph11.3 kmh 29.74 in1007.1 mb 0.00 in0.0 mm 0.00 in0.0 mm 0.00 in0.0 mm
03:45 AM 82.8°F28.2°C 61.7°F16.5°C 49% 3.0 mph S4.8 kmh S 8.0 mph12.9 kmh 29.75 in1007.5 mb 0.00 in0.0 mm 0.00 in0.0 mm 0.00 in0.0 mm
03:46 AM 82.8°F28.2°C 62.0°F16.7°C 49% 3.0 mph S4.8 kmh S 8.0 mph12.9 kmh 29.75 in1007.5 mb 0.00 in0.0 mm 0.00 in0.0 mm 0.00 in0.0 mm
03:50 AM 82.8°F28.2°C 61.7°F16.5°C 49% 3.0 mph S4.8 kmh S 8.0 mph12.9 kmh 29.75 in1007.5 mb 0.00 in0.0 mm 0.00 in0.0 mm 0.00 in0.0 mm
03:51 AM 82.8°F28.2°C 62.0°F16.7°C 49% 1.0 mph SSW1.6 kmh SSW 8.0 mph12.9 kmh 29.75 in1007.5 mb 0.00 in0.0 mm 0.00 in0.0 mm 0.00 in0.0 mm
03:55 AM 82.8°F28.2°C 61.7°F16.5°C 49% 3.0 mph S4.8 kmh S 7.0 mph11.3 kmh 29.75 in1007.5 mb 0.00 in0.0 mm 0.00 in0.0 mm 0.00 in0.0 mm
03:56 AM 82.8°F28.2°C 62.0°F16.7°C 49% 2.0 mph SSW3.2 kmh SSW 5.0 mph8.0 kmh 29.75 in1007.5 mb 0.00 in0.0 mm 0.00 in0.0 mm 0.00 in0.0 mm
04:00 AM 82.8°F28.2°C 61.7°F16.5°C 49% 2.0 mph SSW3.2 kmh SSW 5.0 mph8.0 kmh 29.75 in1007.5 mb 0.00 in0.0 mm 0.00 in0.0 mm 0.00 in0.0 mm
04:01 AM 82.8°F28.2°C 62.0°F16.7°C 49% 1.0 mph SSW1.6 kmh SSW 4.0 mph6.4 kmh 29.75 in1007.5 mb 0.00 in0.0 mm 0.00 in0.0 mm 0.00 in0.0 mm
04:05 AM 82.7°F28.2°C 61.6°F16.4°C 49% 1.0 mph SSW1.6 kmh SSW 3.0 mph4.8 kmh 29.75 in1007.5 mb 0.00 in0.0 mm 0.00 in0.0 mm 0.00 in0.0 mm
04:06 AM 82.7°F28.2°C 62.0°F16.7°C 50% Calm Calm 3.0 mph4.8 kmh 29.75 in1007.5 mb 0.00 in0.0 mm 0.00 in0.0 mm 0.00 in0.0 mm
04:10 AM 82.7°F28.2°C 62.2°F16.8°C 50% Calm Calm 3.0 mph4.8 kmh 29.75 in1007.5 mb 0.00 in0.0 mm 0.00 in0.0 mm 0.00 in0.0 mm
04:11 AM 82.7°F28.2°C 62.0°F16.7°C 50% Calm Calm 3.0 mph4.8 kmh 29.75 in1007.5 mb 0.00 in0.0 mm 0.00 in0.0 mm 0.00 in0.0 mm
04:15 AM 82.6°F28.1°C 62.1°F16.7°C 50% Calm Calm -- 29.75 in1007.5 mb 0.00 in0.0 mm 0.00 in0.0 mm 0.00 in0.0 mm
04:16 AM 82.6°F28.1°C 62.0°F16.7°C 50% Calm Calm -- 29.75 in1007.5 mb 0.00 in0.0 mm 0.00 in0.0 mm 0.00 in0.0 mm
04:20 AM 82.4°F28.0°C 61.9°F16.6°C 50% Calm Calm 3.0 mph4.8 kmh 29.75 in1007.5 mb 0.00 in0.0 mm 0.00 in0.0 mm 0.00 in0.0 mm
04:21 AM 82.4°F28.0°C 62.0°F16.7°C 50% 2.0 mph SSW3.2 kmh SSW 3.0 mph4.8 kmh 29.75 in1007.5 mb 0.00 in0.0 mm 0.00 in0.0 mm 0.00 in0.0 mm
04:25 AM 82.3°F27.9°C 62.4°F16.9°C 51% 1.0 mph SSW1.6 kmh SSW 3.0 mph4.8 kmh 29.75 in1007.5 mb 0.00 in0.0 mm 0.00 in0.0 mm 0.00 in0.0 mm
04:26 AM 82.3°F27.9°C 62.0°F16.7°C 51% Calm Calm 2.0 mph3.2 kmh 29.75 in1007.5 mb 0.00 in0.0 mm 0.00 in0.0 mm 0.00 in0.0 mm
04:30 AM 82.2°F27.9°C 62.3°F16.8°C 51% Calm Calm 2.0 mph3.2 kmh 29.76 in1007.8 mb 0.00 in0.0 mm 0.00 in0.0 mm 0.00 in0.0 mm
04:31 AM 82.2°F27.9°C 62.0°F16.7°C 51% Calm Calm 2.0 mph3.2 kmh 29.76 in1007.8 mb 0.00 in0.0 mm 0.00 in0.0 mm 0.00 in0.0 mm
04:35 AM 82.1°F27.8°C 62.2°F16.8°C 51% Calm Calm -- 29.76 in1007.8 mb 0.00 in0.0 mm 0.00 in0.0 mm 0.00 in0.0 mm
04:36 AM 82.0°F27.8°C 62.0°F16.7°C 51% Calm Calm -- 29.76 in1007.8 mb 0.00 in0.0 mm 0.00 in0.0 mm 0.00 in0.0 mm
04:40 AM 81.9°F27.7°C 62.0°F16.7°C 51% Calm Calm -- 29.76 in1007.8 mb 0.00 in0.0 mm 0.00 in0.0 mm 0.00 in0.0 mm
04:41 AM 81.9°F27.7°C 62.0°F16.7°C 51% Calm Calm -- 29.76 in1007.8 mb 0.00 in0.0 mm 0.00 in0.0 mm 0.00 in0.0 mm
04:45 AM 81.8°F27.7°C 62.5°F16.9°C 52% 1.0 mph SW1.6 kmh SW 4.0 mph6.4 kmh 29.76 in1007.8 mb 0.00 in0.0 mm 0.00 in0.0 mm 0.00 in0.0 mm
04:46 AM 81.7°F27.6°C 62.0°F16.7°C 52% 2.0 mph SSW3.2 kmh SSW 4.0 mph6.4 kmh 29.76 in1007.8 mb 0.00 in0.0 mm 0.00 in0.0 mm 0.00 in0.0 mm
04:50 AM 81.7°F27.6°C 62.4°F16.9°C 52% 1.0 mph SSW1.6 kmh SSW 4.0 mph6.4 kmh 29.76 in1007.8 mb 0.00 in0.0 mm 0.00 in0.0 mm 0.00 in0.0 mm
04:51 AM 81.7°F27.6°C 62.0°F16.7°C 52% Calm Calm 4.0 mph6.4 kmh 29.76 in1007.8 mb 0.00 in0.0 mm 0.00 in0.0 mm 0.00 in0.0 mm
04:55 AM 81.6°F27.6°C 62.8°F17.1°C 53% 1.0 mph SSW1.6 kmh SSW 3.0 mph4.8 kmh 29.76 in1007.8 mb 0.00 in0.0 mm 0.00 in0.0 mm 0.00 in0.0 mm
04:56 AM 81.6°F27.6°C 63.0°F17.2°C 53% Calm Calm 2.0 mph3.2 kmh 29.76 in1007.8 mb 0.00 in0.0 mm 0.00 in0.0 mm 0.00 in0.0 mm
05:00 AM 81.5°F27.5°C 62.7°F17.1°C 53% 1.0 mph SSW1.6 kmh SSW 3.0 mph4.8 kmh 29.76 in1007.8 mb 0.00 in0.0 mm 0.00 in0.0 mm 0.00 in0.0 mm
05:01 AM 81.5°F27.5°C 63.0°F17.2°C 53% 1.0 mph SSW1.6 kmh SSW 3.0 mph4.8 kmh 29.76 in1007.8 mb 0.00 in0.0 mm 0.00 in0.0 mm 0.00 in0.0 mm
05:05 AM 81.5°F27.5°C 62.7°F17.1°C 53% Calm Calm 3.0 mph4.8 kmh 29.76 in1007.8 mb 0.00 in0.0 mm 0.00 in0.0 mm 0.00 in0.0 mm
05:06 AM 81.4°F27.4°C 63.0°F17.2°C 53% Calm Calm 3.0 mph4.8 kmh 29.76 in1007.8 mb 0.00 in0.0 mm 0.00 in0.0 mm 0.00 in0.0 mm
05:10 AM 81.4°F27.4°C 62.6°F17.0°C 53% Calm Calm 1.0 mph1.6 kmh 29.76 in1007.8 mb 0.00 in0.0 mm 0.00 in0.0 mm 0.00 in0.0 mm
05:11 AM 81.4°F27.4°C 63.0°F17.2°C 53% Calm Calm -- 29.76 in1007.8 mb 0.00 in0.0 mm 0.00 in0.0 mm 0.00 in0.0 mm
05:15 AM 81.4°F27.4°C 62.6°F17.0°C 53% Calm Calm -- 29.76 in1007.8 mb 0.00 in0.0 mm 0.00 in0.0 mm 0.00 in0.0 mm
05:16 AM 81.4°F27.4°C 63.0°F17.2°C 53% Calm Calm -- 29.76 in1007.8 mb 0.00 in0.0 mm 0.00 in0.0 mm 0.00 in0.0 mm
05:20 AM 81.3°F27.4°C 63.1°F17.3°C 54% Calm Calm -- 29.76 in1007.8 mb 0.00 in0.0 mm 0.00 in0.0 mm 0.00 in0.0 mm
05:21 AM 81.3°F27.4°C 63.0°F17.2°C 54% Calm Calm -- 29.76 in1007.8 mb 0.00 in0.0 mm 0.00 in0.0 mm 0.00 in0.0 mm
05:25 AM 81.3°F27.4°C 63.1°F17.3°C 54% Calm Calm -- 29.76 in1007.8 mb 0.00 in0.0 mm 0.00 in0.0 mm 0.00 in0.0 mm
05:26 AM 81.2°F27.3°C 63.0°F17.2°C 54% Calm Calm -- 29.76 in1007.8 mb 0.00 in0.0 mm 0.00 in0.0 mm 0.00 in0.0 mm
05:30 AM 81.2°F27.3°C 63.0°F17.2°C 54% Calm Calm -- 29.76 in1007.8 mb 0.00 in0.0 mm 0.00 in0.0 mm 0.00 in0.0 mm
05:31 AM 81.2°F27.3°C 63.0°F17.2°C 54% Calm Calm -- 29.76 in1007.8 mb 0.00 in0.0 mm 0.00 in0.0 mm 0.00 in0.0 mm
05:35 AM 81.0°F27.2°C 62.8°F17.1°C 54% Calm Calm -- 29.76 in1007.8 mb 0.00 in0.0 mm 0.00 in0.0 mm 0.00 in0.0 mm
05:36 AM 81.0°F27.2°C 63.0°F17.2°C 54% Calm Calm -- 29.76 in1007.8 mb 0.00 in0.0 mm 0.00 in0.0 mm 0.00 in0.0 mm
05:40 AM 81.0°F27.2°C 62.8°F17.1°C 54% Calm Calm 4.0 mph6.4 kmh 29.76 in1007.8 mb 0.00 in0.0 mm 0.00 in0.0 mm 0.00 in0.0 mm
05:41 AM 81.0°F27.2°C 63.0°F17.2°C 54% 2.0 mph S3.2 kmh S 4.0 mph6.4 kmh 29.76 in1007.8 mb 0.00 in0.0 mm 0.00 in0.0 mm 0.00 in0.0 mm
05:45 AM 80.8°F27.1°C 63.1°F17.3°C 55% 1.0 mph S1.6 kmh S 4.0 mph6.4 kmh 29.76 in1007.8 mb 0.00 in0.0 mm 0.00 in0.0 mm 0.00 in0.0 mm
05:46 AM 80.8°F27.1°C 63.0°F17.2°C 55% Calm Calm 4.0 mph6.4 kmh 29.76 in1007.8 mb 0.00 in0.0 mm 0.00 in0.0 mm 0.00 in0.0 mm
05:50 AM 80.7°F27.1°C 63.0°F17.2°C 55% Calm Calm 2.0 mph3.2 kmh 29.77 in1008.1 mb 0.00 in0.0 mm 0.00 in0.0 mm 0.00 in0.0 mm
05:51 AM 80.7°F27.1°C 63.0°F17.2°C 55% Calm Calm 2.0 mph3.2 kmh 29.77 in1008.1 mb 0.00 in0.0 mm 0.00 in0.0 mm 0.00 in0.0 mm
05:55 AM 80.7°F27.1°C 63.0°F17.2°C 55% Calm Calm 1.0 mph1.6 kmh 29.77 in1008.1 mb 0.00 in0.0 mm 0.00 in0.0 mm 0.00 in0.0 mm
05:56 AM 80.7°F27.1°C 63.0°F17.2°C 55% Calm Calm 1.0 mph1.6 kmh 29.77 in1008.1 mb 0.00 in0.0 mm 0.00 in0.0 mm 0.00 in0.0 mm
06:00 AM 80.7°F27.1°C 63.0°F17.2°C 55% Calm Calm -- 29.77 in1008.1 mb 0.00 in0.0 mm 0.00 in0.0 mm 0.00 in0.0 mm
06:01 AM 80.7°F27.1°C 63.0°F17.2°C 55% Calm Calm -- 29.77 in1008.1 mb 0.00 in0.0 mm 0.00 in0.0 mm 0.00 in0.0 mm
06:05 AM 80.6°F27.0°C 63.5°F17.5°C 56% Calm Calm 3.0 mph4.8 kmh 29.77 in1008.1 mb 0.00 in0.0 mm 0.00 in0.0 mm 0.00 in0.0 mm
06:06 AM 80.6°F27.0°C 63.0°F17.2°C 56% 2.0 mph S3.2 kmh S 3.0 mph4.8 kmh 29.77 in1008.1 mb 0.00 in0.0 mm 0.00 in0.0 mm 0.00 in0.0 mm
06:10 AM 80.6°F27.0°C 63.5°F17.5°C 56% 1.0 mph S1.6 kmh S 3.0 mph4.8 kmh 29.77 in1008.1 mb 0.00 in0.0 mm 0.00 in0.0 mm 0.00 in0.0 mm
06:11 AM 80.5°F26.9°C 63.0°F17.2°C 56% 2.0 mph S3.2 kmh S 3.0 mph4.8 kmh 29.78 in1008.5 mb 0.00 in0.0 mm 0.00 in0.0 mm 0.00 in0.0 mm
06:15 AM 80.6°F27.0°C 63.5°F17.5°C 56% 1.0 mph S1.6 kmh S 3.0 mph4.8 kmh 29.77 in1008.1 mb 0.00 in0.0 mm 0.00 in0.0 mm 0.00 in0.0 mm
06:16 AM 80.6°F27.0°C 63.0°F17.2°C 56% Calm Calm 3.0 mph4.8 kmh 29.77 in1008.1 mb 0.00 in0.0 mm 0.00 in0.0 mm 0.00 in0.0 mm
06:20 AM 80.6°F27.0°C 63.5°F17.5°C 56% Calm Calm 2.0 mph3.2 kmh 29.77 in1008.1 mb 0.00 in0.0 mm 0.00 in0.0 mm 0.00 in0.0 mm
06:21 AM 80.6°F27.0°C 64.0°F17.8°C 57% Calm Calm 2.0 mph3.2 kmh 29.78 in1008.5 mb 0.00 in0.0 mm 0.00 in0.0 mm 0.00 in0.0 mm
06:25 AM 80.6°F27.0°C 63.5°F17.5°C 56% Calm Calm 2.0 mph3.2 kmh 29.78 in1008.5 mb 0.00 in0.0 mm 0.00 in0.0 mm 0.00 in0.0 mm
06:26 AM 80.6°F27.0°C 63.0°F17.2°C 56% Calm Calm 2.0 mph3.2 kmh 29.78 in1008.5 mb 0.00 in0.0 mm 0.00 in0.0 mm 0.00 in0.0 mm
06:30 AM 80.6°F27.0°C 63.5°F17.5°C 56% Calm Calm 1.0 mph1.6 kmh 29.78 in1008.5 mb 0.00 in0.0 mm 0.00 in0.0 mm 0.00 in0.0 mm
06:31 AM 80.6°F27.0°C 63.0°F17.2°C 56% Calm Calm -- 29.78 in1008.5 mb 0.00 in0.0 mm 0.00 in0.0 mm 0.00 in0.0 mm
06:35 AM 80.6°F27.0°C 63.5°F17.5°C 56% Calm Calm -- 29.78 in1008.5 mb 0.00 in0.0 mm 0.00 in0.0 mm 0.00 in0.0 mm
06:36 AM 80.6°F27.0°C 64.0°F17.8°C 57% Calm Calm -- 29.78 in1008.5 mb 0.00 in0.0 mm 0.00 in0.0 mm 0.00 in0.0 mm
06:40 AM 80.5°F26.9°C 64.4°F18.0°C 58% Calm Calm -- 29.78 in1008.5 mb 0.00 in0.0 mm 0.00 in0.0 mm 0.00 in0.0 mm
06:41 AM 80.5°F26.9°C 64.0°F17.8°C 58% Calm Calm -- 29.78 in1008.5 mb 0.00 in0.0 mm 0.00 in0.0 mm 0.00 in0.0 mm
06:45 AM 80.5°F26.9°C 64.9°F18.3°C 59% Calm Calm 3.0 mph4.8 kmh 29.78 in1008.5 mb 0.00 in0.0 mm 0.00 in0.0 mm 0.00 in0.0 mm
06:46 AM 80.5°F26.9°C 65.0°F18.3°C 59% 2.0 mph E3.2 kmh E 3.0 mph4.8 kmh 29.78 in1008.5 mb 0.00 in0.0 mm 0.00 in0.0 mm 0.00 in0.0 mm
06:50 AM 80.4°F26.9°C 64.8°F18.2°C 59% 1.0 mph E1.6 kmh E 4.0 mph6.4 kmh 29.78 in1008.5 mb 0.00 in0.0 mm 0.00 in0.0 mm 0.00 in0.0 mm
06:51 AM 80.5°F26.9°C 64.0°F17.8°C 58% Calm Calm 4.0 mph6.4 kmh 29.78 in1008.5 mb 0.00 in0.0 mm 0.00 in0.0 mm 0.00 in0.0 mm
06:55 AM 80.4°F26.9°C 64.3°F17.9°C 58% 1.0 mph E1.6 kmh E 4.0 mph6.4 kmh 29.78 in1008.5 mb 0.00 in0.0 mm 0.00 in0.0 mm 0.00 in0.0 mm
06:56 AM 80.4°F26.9°C 64.0°F17.8°C 58% Calm Calm 3.0 mph4.8 kmh 29.78 in1008.5 mb 0.00 in0.0 mm 0.00 in0.0 mm 0.00 in0.0 mm
07:00 AM 80.5°F26.9°C 64.9°F18.3°C 59% Calm Calm 2.0 mph3.2 kmh 29.78 in1008.5 mb 0.00 in0.0 mm 0.00 in0.0 mm 0.00 in0.0 mm
07:01 AM 80.5°F26.9°C 65.0°F18.3°C 59% Calm Calm 2.0 mph3.2 kmh 29.78 in1008.5 mb 0.00 in0.0 mm 0.00 in0.0 mm 0.00 in0.0 mm
07:05 AM 80.5°F26.9°C 64.9°F18.3°C 59% Calm Calm 2.0 mph3.2 kmh 29.78 in1008.5 mb 0.00 in0.0 mm 0.00 in0.0 mm 0.00 in0.0 mm
07:06 AM 80.5°F26.9°C 65.0°F18.3°C 59% Calm Calm 2.0 mph3.2 kmh 29.78 in1008.5 mb 0.00 in0.0 mm 0.00 in0.0 mm 0.00 in0.0 mm
07:10 AM 80.6°F27.0°C 64.9°F18.3°C 59% Calm Calm 2.0 mph3.2 kmh 29.79 in1008.8 mb 0.00 in0.0 mm 0.00 in0.0 mm 0.00 in0.0 mm
07:11 AM 80.6°F27.0°C 65.0°F18.3°C 59% Calm Calm 2.0 mph3.2 kmh 29.79 in1008.8 mb 0.00 in0.0 mm 0.00 in0.0 mm 0.00 in0.0 mm
07:15 AM 80.7°F27.1°C 65.5°F18.6°C 60% Calm Calm -- 29.79 in1008.8 mb 0.00 in0.0 mm 0.00 in0.0 mm 0.00 in0.0 mm
07:16 AM 80.7°F27.1°C 65.0°F18.3°C 60% Calm Calm -- 29.79 in1008.8 mb 0.00 in0.0 mm 0.00 in0.0 mm 0.00 in0.0 mm
07:20 AM 80.9°F27.2°C 65.2°F18.4°C 59% Calm Calm 2.0 mph3.2 kmh 29.79 in1008.8 mb 0.00 in0.0 mm 0.00 in0.0 mm 0.00 in0.0 mm
07:21 AM 80.9°F27.2°C 66.0°F18.9°C 60% 2.0 mph E3.2 kmh E 3.0 mph4.8 kmh 29.79 in1008.8 mb 0.00 in0.0 mm 0.00 in0.0 mm 0.00 in0.0 mm
07:25 AM 81.2°F27.3°C 65.0°F18.3°C 58% 1.0 mph E1.6 kmh E 2.0 mph3.2 kmh 29.79 in1008.8 mb 0.00 in0.0 mm 0.00 in0.0 mm 0.00 in0.0 mm
07:26 AM 81.2°F27.3°C 65.0°F18.3°C 58% Calm Calm 3.0 mph4.8 kmh 29.79 in1008.8 mb 0.00 in0.0 mm 0.00 in0.0 mm 0.00 in0.0 mm
07:30 AM 81.5°F27.5°C 64.8°F18.2°C 57% 1.0 mph E1.6 kmh E 2.0 mph3.2 kmh 29.79 in1008.8 mb 0.00 in0.0 mm 0.00 in0.0 mm 0.00 in0.0 mm
07:31 AM 81.6°F27.6°C 65.0°F18.3°C 58% Calm Calm 2.0 mph3.2 kmh 29.79 in1008.8 mb 0.00 in0.0 mm 0.00 in0.0 mm 0.00 in0.0 mm
07:35 AM 81.9°F27.7°C 65.2°F18.4°C 57% Calm Calm 3.0 mph4.8 kmh 29.79 in1008.8 mb 0.00 in0.0 mm 0.00 in0.0 mm 0.00 in0.0 mm
07:36 AM 81.9°F27.7°C 65.0°F18.3°C 57% 1.0 mph E1.6 kmh E 3.0 mph4.8 kmh 29.79 in1008.8 mb 0.00 in0.0 mm 0.00 in0.0 mm 0.00 in0.0 mm
07:40 AM 82.3°F27.9°C 64.0°F17.8°C 54% 1.0 mph SE1.6 kmh SE 4.0 mph6.4 kmh 29.79 in1008.8 mb 0.00 in0.0 mm 0.00 in0.0 mm 0.00 in0.0 mm
07:41 AM 82.3°F27.9°C 64.0°F17.8°C 54% 3.0 mph S4.8 kmh S 6.0 mph9.7 kmh 29.79 in1008.8 mb 0.00 in0.0 mm 0.00 in0.0 mm 0.00 in0.0 mm
07:45 AM 82.6°F28.1°C 64.3°F17.9°C 54% 2.0 mph S3.2 kmh S 6.0 mph9.7 kmh 29.79 in1008.8 mb 0.00 in0.0 mm 0.00 in0.0 mm 0.00 in0.0 mm
07:46 AM 82.6°F28.1°C 64.0°F17.8°C 54% 2.0 mph SSW3.2 kmh SSW 5.0 mph8.0 kmh 29.79 in1008.8 mb 0.00 in0.0 mm 0.00 in0.0 mm 0.00 in0.0 mm
07:50 AM 82.9°F28.3°C 64.5°F18.1°C 54% 2.0 mph SSW3.2 kmh SSW 6.0 mph9.7 kmh 29.80 in1009.1 mb 0.00 in0.0 mm 0.00 in0.0 mm 0.00 in0.0 mm
07:51 AM 83.0°F28.3°C 65.0°F18.3°C 54% Calm Calm 4.0 mph6.4 kmh 29.80 in1009.1 mb 0.00 in0.0 mm 0.00 in0.0 mm 0.00 in0.0 mm
07:55 AM 83.2°F28.4°C 64.3°F17.9°C 53% 1.0 mph SSW1.6 kmh SSW 4.0 mph6.4 kmh 29.80 in1009.1 mb 0.00 in0.0 mm 0.00 in0.0 mm 0.00 in0.0 mm
07:56 AM 83.2°F28.4°C 64.0°F17.8°C 53% 2.0 mph SSW3.2 kmh SSW 4.0 mph6.4 kmh 29.80 in1009.1 mb 0.00 in0.0 mm 0.00 in0.0 mm 0.00 in0.0 mm
08:00 AM 83.4°F28.6°C 64.5°F18.1°C 53% 1.0 mph SSW1.6 kmh SSW 4.0 mph6.4 kmh 29.80 in1009.1 mb 0.00 in0.0 mm 0.00 in0.0 mm 0.00 in0.0 mm
08:01 AM 83.4°F28.6°C 64.0°F17.8°C 53% 1.0 mph SSW1.6 kmh SSW 4.0 mph6.4 kmh 29.80 in1009.1 mb 0.00 in0.0 mm 0.00 in0.0 mm 0.00 in0.0 mm
08:05 AM 83.6°F28.7°C 64.1°F17.8°C 52% 1.0 mph SSW1.6 kmh SSW 4.0 mph6.4 kmh 29.80 in1009.1 mb 0.00 in0.0 mm 0.00 in0.0 mm 0.00 in0.0 mm
08:06 AM 83.6°F28.7°C 64.0°F17.8°C 52% 3.0 mph S4.8 kmh S 4.0 mph6.4 kmh 29.80 in1009.1 mb 0.00 in0.0 mm 0.00 in0.0 mm 0.00 in0.0 mm
08:10 AM 83.8°F28.8°C 64.3°F17.9°C 52% 2.0 mph S3.2 kmh S 4.0 mph6.4 kmh 29.80 in1009.1 mb 0.00 in0.0 mm 0.00 in0.0 mm 0.00 in0.0 mm
08:11 AM 83.8°F28.8°C 64.0°F17.8°C 51% 2.0 mph S3.2 kmh S 5.0 mph8.0 kmh 29.80 in1009.1 mb 0.00 in0.0 mm 0.00 in0.0 mm 0.00 in0.0 mm
08:15 AM 83.9°F28.8°C 63.8°F17.7°C 51% 2.0 mph S3.2 kmh S 5.0 mph8.0 kmh 29.80 in1009.1 mb 0.00 in0.0 mm 0.00 in0.0 mm 0.00 in0.0 mm
08:16 AM 83.9°F28.8°C 64.0°F17.8°C 51% 1.0 mph S1.6 kmh S 5.0 mph8.0 kmh 29.80 in1009.1 mb 0.00 in0.0 mm 0.00 in0.0 mm 0.00 in0.0 mm
08:20 AM 84.1°F28.9°C 64.0°F17.8°C 51% 1.0 mph S1.6 kmh S 5.0 mph8.0 kmh 29.80 in1009.1 mb 0.00 in0.0 mm 0.00 in0.0 mm 0.00 in0.0 mm
08:21 AM 84.1°F28.9°C 64.0°F17.8°C 51% 2.0 mph SSW3.2 kmh SSW 4.0 mph6.4 kmh 29.80 in1009.1 mb 0.00 in0.0 mm 0.00 in0.0 mm 0.00 in0.0 mm
08:25 AM 84.3°F29.1°C 64.2°F17.9°C 51% 2.0 mph SSW3.2 kmh SSW 4.0 mph6.4 kmh 29.80 in1009.1 mb 0.00 in0.0 mm 0.00 in0.0 mm 0.00 in0.0 mm
08:26 AM 84.3°F29.1°C 64.0°F17.8°C 51% 2.0 mph SW3.2 kmh SW 4.0 mph6.4 kmh 29.80 in1009.1 mb 0.00 in0.0 mm 0.00 in0.0 mm 0.00 in0.0 mm
08:30 AM 84.5°F29.2°C 64.4°F18.0°C 51% 2.0 mph SW3.2 kmh SW 4.0 mph6.4 kmh 29.81 in1009.5 mb 0.00 in0.0 mm 0.00 in0.0 mm 0.00 in0.0 mm
08:31 AM 84.5°F29.2°C 64.0°F17.8°C 51% 3.0 mph WSW4.8 kmh WSW 6.0 mph9.7 kmh 29.81 in1009.5 mb 0.00 in0.0 mm 0.00 in0.0 mm 0.00 in0.0 mm
08:35 AM 84.6°F29.2°C 63.9°F17.7°C 50% 2.0 mph SW3.2 kmh SW 6.0 mph9.7 kmh 29.81 in1009.5 mb 0.00 in0.0 mm 0.00 in0.0 mm 0.00 in0.0 mm
08:36 AM 84.6°F29.2°C 64.0°F17.8°C 50% 2.0 mph SSW3.2 kmh SSW 6.0 mph9.7 kmh 29.81 in1009.5 mb 0.00 in0.0 mm 0.00 in0.0 mm 0.00 in0.0 mm
08:40 AM 84.9°F29.4°C 63.6°F17.6°C 49% 2.0 mph SW3.2 kmh SW 6.0 mph9.7 kmh 29.81 in1009.5 mb 0.00 in0.0 mm 0.00 in0.0 mm 0.00 in0.0 mm
08:41 AM 85.0°F29.4°C 64.0°F17.8°C 49% 1.0 mph SW1.6 kmh SW 4.0 mph6.4 kmh 29.81 in1009.5 mb 0.00 in0.0 mm 0.00 in0.0 mm 0.00 in0.0 mm
08:45 AM 85.4°F29.7°C 64.1°F17.8°C 49% 2.0 mph SW3.2 kmh SW 5.0 mph8.0 kmh 29.81 in1009.5 mb 0.00 in0.0 mm 0.00 in0.0 mm 0.00 in0.0 mm
08:46 AM 85.4°F29.7°C 64.0°F17.8°C 49% 4.0 mph S6.4 kmh S 5.0 mph8.0 kmh 29.81 in1009.5 mb 0.00 in0.0 mm 0.00 in0.0 mm 0.00 in0.0 mm
08:50 AM 85.8°F29.9°C 63.8°F17.7°C 48% 2.0 mph SW3.2 kmh SW 5.0 mph8.0 kmh 29.81 in1009.5 mb 0.00 in0.0 mm 0.00 in0.0 mm 0.00 in0.0 mm
08:51 AM 85.9°F29.9°C 64.0°F17.8°C 48% 5.0 mph S8.0 kmh S 6.0 mph9.7 kmh 29.81 in1009.5 mb 0.00 in0.0 mm 0.00 in0.0 mm 0.00 in0.0 mm
08:55 AM 86.1°F30.1°C 64.1°F17.8°C 48% 3.0 mph SW4.8 kmh SW 8.0 mph12.9 kmh 29.81 in1009.5 mb 0.00 in0.0 mm 0.00 in0.0 mm 0.00 in0.0 mm
08:56 AM 86.1°F30.1°C 64.0°F17.8°C 48% 5.0 mph SSW8.0 kmh SSW 8.0 mph12.9 kmh 29.81 in1009.5 mb 0.00 in0.0 mm 0.00 in0.0 mm 0.00 in0.0 mm
09:00 AM 85.9°F29.9°C 63.9°F17.7°C 48% 4.0 mph SSW6.4 kmh SSW 8.0 mph12.9 kmh 29.81 in1009.5 mb 0.00 in0.0 mm 0.00 in0.0 mm 0.00 in0.0 mm
09:01 AM 86.0°F30.0°C 64.0°F17.8°C 48% 4.0 mph S6.4 kmh S 8.0 mph12.9 kmh 29.81 in1009.5 mb 0.00 in0.0 mm 0.00 in0.0 mm 0.00 in0.0 mm
09:05 AM 86.4°F30.2°C 63.8°F17.7°C 47% 4.0 mph S6.4 kmh S 8.0 mph12.9 kmh 29.81 in1009.5 mb 0.00 in0.0 mm 0.00 in0.0 mm 0.00 in0.0 mm
09:06 AM 86.4°F30.2°C 64.0°F17.8°C 47% 3.0 mph S4.8 kmh S 7.0 mph11.3 kmh 29.81 in1009.5 mb 0.00 in0.0 mm 0.00 in0.0 mm 0.00 in0.0 mm
09:10 AM 87.1°F30.6°C 63.8°F17.7°C 46% 5.0 mph S8.0 kmh S 8.0 mph12.9 kmh 29.81 in1009.5 mb 0.00 in0.0 mm 0.00 in0.0 mm 0.00 in0.0 mm
09:11 AM 87.3°F30.7°C 64.0°F17.8°C 46% 3.0 mph SW4.8 kmh SW 8.0 mph12.9 kmh 29.81 in1009.5 mb 0.00 in0.0 mm 0.00 in0.0 mm 0.00 in0.0 mm
09:15 AM 87.9°F31.1°C 63.9°F17.7°C 45% 4.0 mph S6.4 kmh S 8.0 mph12.9 kmh 29.81 in1009.5 mb 0.00 in0.0 mm 0.00 in0.0 mm 0.00 in0.0 mm
09:16 AM 87.9°F31.1°C 64.0°F17.8°C 45% 2.0 mph S3.2 kmh S 8.0 mph12.9 kmh 29.81 in1009.5 mb 0.00 in0.0 mm 0.00 in0.0 mm 0.00 in0.0 mm
09:20 AM 88.8°F31.6°C 64.7°F18.2°C 45% 3.0 mph S4.8 kmh S 7.0 mph11.3 kmh 29.81 in1009.5 mb 0.00 in0.0 mm 0.00 in0.0 mm 0.00 in0.0 mm
09:21 AM 89.0°F31.7°C 65.0°F18.3°C 45% 2.0 mph SW3.2 kmh SW 7.0 mph11.3 kmh 29.81 in1009.5 mb 0.00 in0.0 mm 0.00 in0.0 mm 0.00 in0.0 mm
09:25 AM 89.7°F32.1°C 64.2°F17.9°C 43% 3.0 mph S4.8 kmh S 6.0 mph9.7 kmh 29.81 in1009.5 mb 0.00 in0.0 mm 0.00 in0.0 mm 0.00 in0.0 mm
09:26 AM 89.7°F32.1°C 64.0°F17.8°C 43% 3.0 mph S4.8 kmh S 6.0 mph9.7 kmh 29.81 in1009.5 mb 0.00 in0.0 mm 0.00 in0.0 mm 0.00 in0.0 mm
09:30 AM 90.6°F32.6°C 64.4°F18.0°C 42% 3.0 mph S4.8 kmh S 7.0 mph11.3 kmh 29.81 in1009.5 mb 0.00 in0.0 mm 0.00 in0.0 mm 0.00 in0.0 mm
09:31 AM 90.8°F32.7°C 65.0°F18.3°C 42% 2.0 mph SSW3.2 kmh SSW 7.0 mph11.3 kmh 29.81 in1009.5 mb 0.00 in0.0 mm 0.00 in0.0 mm 0.00 in0.0 mm
09:35 AM 91.3°F32.9°C 63.6°F17.6°C 40% 4.0 mph S6.4 kmh S 8.0 mph12.9 kmh 29.81 in1009.5 mb 0.00 in0.0 mm 0.00 in0.0 mm 0.00 in0.0 mm
09:36 AM 91.3°F32.9°C 64.0°F17.8°C 40% 5.0 mph SSW8.0 kmh SSW 8.0 mph12.9 kmh 29.81 in1009.5 mb 0.00 in0.0 mm 0.00 in0.0 mm 0.00 in0.0 mm
09:40 AM 91.4°F33.0°C 63.7°F17.6°C 40% 3.0 mph S4.8 kmh S 8.0 mph12.9 kmh 29.81 in1009.5 mb 0.00 in0.0 mm 0.00 in0.0 mm 0.00 in0.0 mm
09:41 AM 91.4°F33.0°C 65.0°F18.3°C 41% 1.0 mph NE1.6 kmh NE 7.0 mph11.3 kmh 29.81 in1009.5 mb 0.00 in0.0 mm 0.00 in0.0 mm 0.00 in0.0 mm
09:45 AM 92.0°F33.3°C 64.2°F17.9°C 40% 2.0 mph ESE3.2 kmh ESE 7.0 mph11.3 kmh 29.81 in1009.5 mb 0.00 in0.0 mm 0.00 in0.0 mm 0.00 in0.0 mm
09:46 AM 92.0°F33.3°C 64.0°F17.8°C 40% 4.0 mph SE6.4 kmh SE 5.0 mph8.0 kmh 29.81 in1009.5 mb 0.00 in0.0 mm 0.00 in0.0 mm 0.00 in0.0 mm
09:50 AM 92.4°F33.6°C 63.9°F17.7°C 39% 3.0 mph S4.8 kmh S 5.0 mph8.0 kmh 29.81 in1009.5 mb 0.00 in0.0 mm 0.00 in0.0 mm 0.00 in0.0 mm
09:51 AM 92.4°F33.6°C 64.0°F17.8°C 39% 3.0 mph SW4.8 kmh SW 6.0 mph9.7 kmh 29.81 in1009.5 mb 0.00 in0.0 mm 0.00 in0.0 mm 0.00 in0.0 mm
09:55 AM 92.4°F33.6°C 63.1°F17.3°C 38% 2.0 mph SW3.2 kmh SW 5.0 mph8.0 kmh 29.81 in1009.5 mb 0.00 in0.0 mm 0.00 in0.0 mm 0.00 in0.0 mm
09:56 AM 92.4°F33.6°C 63.0°F17.2°C 38% 2.0 mph SW3.2 kmh SW 6.0 mph9.7 kmh 29.81 in1009.5 mb 0.00 in0.0 mm 0.00 in0.0 mm 0.00 in0.0 mm
10:00 AM 92.2°F33.4°C 63.7°F17.6°C 39% 2.0 mph W3.2 kmh W 6.0 mph9.7 kmh 29.81 in1009.5 mb 0.00 in0.0 mm 0.00 in0.0 mm 0.00 in0.0 mm
10:01 AM 92.0°F33.3°C 63.0°F17.2°C 38% 4.0 mph NNE6.4 kmh NNE 6.0 mph9.7 kmh 29.81 in1009.5 mb 0.00 in0.0 mm 0.00 in0.0 mm 0.00 in0.0 mm
10:05 AM 91.9°F33.3°C 63.4°F17.4°C 39% 3.0 mph N4.8 kmh N 8.0 mph12.9 kmh 29.81 in1009.5 mb 0.00 in0.0 mm 0.00 in0.0 mm 0.00 in0.0 mm
10:06 AM 91.9°F33.3°C 64.0°F17.8°C 39% 4.0 mph N6.4 kmh N 8.0 mph12.9 kmh 29.81 in1009.5 mb 0.00 in0.0 mm 0.00 in0.0 mm 0.00 in0.0 mm
10:10 AM 91.3°F32.9°C 62.9°F17.2°C 39% 3.0 mph NE4.8 kmh NE 10.0 mph16.1 kmh 29.81 in1009.5 mb 0.00 in0.0 mm 0.00 in0.0 mm 0.00 in0.0 mm
10:11 AM 91.3°F32.9°C 64.0°F17.8°C 40% 1.0 mph ENE1.6 kmh ENE 10.0 mph16.1 kmh 29.81 in1009.5 mb 0.00 in0.0 mm 0.00 in0.0 mm 0.00 in0.0 mm
10:15 AM 91.6°F33.1°C 63.1°F17.3°C 39% 3.0 mph NE4.8 kmh NE 10.0 mph16.1 kmh 29.80 in1009.1 mb 0.00 in0.0 mm 0.00 in0.0 mm 0.00 in0.0 mm
10:16 AM 91.6°F33.1°C 63.0°F17.2°C 39% 2.0 mph NE3.2 kmh NE 10.0 mph16.1 kmh 29.80 in1009.1 mb 0.00 in0.0 mm 0.00 in0.0 mm 0.00 in0.0 mm
10:20 AM 92.1°F33.4°C 63.6°F17.6°C 39% 2.0 mph ENE3.2 kmh ENE 5.0 mph8.0 kmh 29.80 in1009.1 mb 0.00 in0.0 mm 0.00 in0.0 mm 0.00 in0.0 mm
10:21 AM 92.3°F33.5°C 63.0°F17.2°C 38% 4.0 mph SE6.4 kmh SE 5.0 mph8.0 kmh 29.80 in1009.1 mb 0.00 in0.0 mm 0.00 in0.0 mm 0.00 in0.0 mm
10:25 AM 93.1°F33.9°C 63.0°F17.2°C 37% 2.0 mph ESE3.2 kmh ESE 6.0 mph9.7 kmh 29.80 in1009.1 mb 0.00 in0.0 mm 0.00 in0.0 mm 0.00 in0.0 mm
10:26 AM 93.1°F33.9°C 63.0°F17.2°C 37% 2.0 mph ESE3.2 kmh ESE 6.0 mph9.7 kmh 29.80 in1009.1 mb 0.00 in0.0 mm 0.00 in0.0 mm 0.00 in0.0 mm
10:30 AM 93.7°F34.3°C 63.5°F17.5°C 37% 3.0 mph SE4.8 kmh SE 7.0 mph11.3 kmh 29.80 in1009.1 mb 0.00 in0.0 mm 0.00 in0.0 mm 0.00 in0.0 mm
10:31 AM 93.6°F34.2°C 64.0°F17.8°C 37% 5.0 mph SE8.0 kmh SE 6.0 mph9.7 kmh 29.80 in1009.1 mb 0.00 in0.0 mm 0.00 in0.0 mm 0.00 in0.0 mm
10:35 AM 93.2°F34.0°C 62.3°F16.8°C 36% 3.0 mph E4.8 kmh E 7.0 mph11.3 kmh 29.80 in1009.1 mb 0.00 in0.0 mm 0.00 in0.0 mm 0.00 in0.0 mm
10:36 AM 93.2°F34.0°C 63.0°F17.2°C 36% 2.0 mph E3.2 kmh E 7.0 mph11.3 kmh 29.80 in1009.1 mb 0.00 in0.0 mm 0.00 in0.0 mm 0.00 in0.0 mm
10:40 AM 93.1°F33.9°C 62.2°F16.8°C 36% 4.0 mph ESE6.4 kmh ESE 8.0 mph12.9 kmh 29.79 in1008.8 mb 0.00 in0.0 mm 0.00 in0.0 mm 0.00 in0.0 mm
10:41 AM 93.2°F34.0°C 63.0°F17.2°C 36% 4.0 mph SSE6.4 kmh SSE 8.0 mph12.9 kmh 29.79 in1008.8 mb 0.00 in0.0 mm 0.00 in0.0 mm 0.00 in0.0 mm
10:45 AM 93.6°F34.2°C 61.8°F16.6°C 35% 4.0 mph SE6.4 kmh SE 8.0 mph12.9 kmh 29.80 in1009.1 mb 0.00 in0.0 mm 0.00 in0.0 mm 0.00 in0.0 mm
10:46 AM 93.6°F34.2°C 62.0°F16.7°C 35% 5.0 mph SE8.0 kmh SE 8.0 mph12.9 kmh 29.80 in1009.1 mb 0.00 in0.0 mm 0.00 in0.0 mm 0.00 in0.0 mm
10:50 AM 93.8°F34.3°C 62.0°F16.7°C 35% 3.0 mph ESE4.8 kmh ESE 7.0 mph11.3 kmh 29.79 in1008.8 mb 0.00 in0.0 mm 0.00 in0.0 mm 0.00 in0.0 mm
10:51 AM 94.0°F34.4°C 62.0°F16.7°C 35% 2.0 mph SSE3.2 kmh SSE 7.0 mph11.3 kmh 29.79 in1008.8 mb 0.00 in0.0 mm 0.00 in0.0 mm 0.00 in0.0 mm
10:55 AM 94.2°F34.6°C 62.4°F16.9°C 35% 2.0 mph SE3.2 kmh SE 6.0 mph9.7 kmh 29.79 in1008.8 mb 0.00 in0.0 mm 0.00 in0.0 mm 0.00 in0.0 mm
10:56 AM 94.2°F34.6°C 63.0°F17.2°C 35% 1.0 mph SE1.6 kmh SE 5.0 mph8.0 kmh 29.79 in1008.8 mb 0.00 in0.0 mm 0.00 in0.0 mm 0.00 in0.0 mm
11:00 AM 95.0°F35.0°C 62.2°F16.8°C 34% 1.0 mph SE1.6 kmh SE 5.0 mph8.0 kmh 29.79 in1008.8 mb 0.00 in0.0 mm 0.00 in0.0 mm 0.00 in0.0 mm
11:01 AM 94.9°F34.9°C 62.0°F16.7°C 34% 3.0 mph NNE4.8 kmh NNE 4.0 mph6.4 kmh 29.79 in1008.8 mb 0.00 in0.0 mm 0.00 in0.0 mm 0.00 in0.0 mm
11:05 AM 95.1°F35.1°C 62.3°F16.8°C 34% 1.0 mph NNE1.6 kmh NNE 4.0 mph6.4 kmh 29.79 in1008.8 mb 0.00 in0.0 mm 0.00 in0.0 mm 0.00 in0.0 mm
11:06 AM 95.1°F35.1°C 63.0°F17.2°C 34% 2.0 mph NNW3.2 kmh NNW 4.0 mph6.4 kmh 29.79 in1008.8 mb 0.00 in0.0 mm 0.00 in0.0 mm 0.00 in0.0 mm
11:10 AM 95.7°F35.4°C 62.0°F16.7°C 33% 1.0 mph N1.6 kmh N 4.0 mph6.4 kmh 29.79 in1008.8 mb 0.00 in0.0 mm 0.00 in0.0 mm 0.00 in0.0 mm
11:11 AM 95.9°F35.5°C 62.0°F16.7°C 33% 2.0 mph E3.2 kmh E 4.0 mph6.4 kmh 29.79 in1008.8 mb 0.00 in0.0 mm 0.00 in0.0 mm 0.00 in0.0 mm
11:15 AM 95.4°F35.2°C 61.7°F16.5°C 33% 2.0 mph NE3.2 kmh NE 6.0 mph9.7 kmh 29.78 in1008.5 mb 0.00 in0.0 mm 0.00 in0.0 mm 0.00 in0.0 mm
11:16 AM 95.4°F35.2°C 62.0°F16.7°C 33% 1.0 mph E1.6 kmh E 5.0 mph8.0 kmh 29.78 in1008.5 mb 0.00 in0.0 mm 0.00 in0.0 mm 0.00 in0.0 mm
11:20 AM 96.0°F35.6°C 62.3°F16.8°C 33% 3.0 mph ESE4.8 kmh ESE 6.0 mph9.7 kmh 29.78 in1008.5 mb 0.00 in0.0 mm 0.00 in0.0 mm 0.00 in0.0 mm
11:21 AM 95.9°F35.5°C 62.0°F16.7°C 33% 5.0 mph SE8.0 kmh SE 7.0 mph11.3 kmh 29.78 in1008.5 mb 0.00 in0.0 mm 0.00 in0.0 mm 0.00 in0.0 mm
11:25 AM 96.3°F35.7°C 62.5°F16.9°C 33% 3.0 mph S4.8 kmh S 7.0 mph11.3 kmh 29.78 in1008.5 mb 0.00 in0.0 mm 0.00 in0.0 mm 0.00 in0.0 mm
11:26 AM 96.3°F35.7°C 63.0°F17.2°C 33% 1.0 mph W1.6 kmh W 7.0 mph11.3 kmh 29.78 in1008.5 mb 0.00 in0.0 mm 0.00 in0.0 mm 0.00 in0.0 mm
11:30 AM 96.1°F35.6°C 63.2°F17.3°C 34% 2.0 mph ESE3.2 kmh ESE 7.0 mph11.3 kmh 29.78 in1008.5 mb 0.00 in0.0 mm 0.00 in0.0 mm 0.00 in0.0 mm
11:31 AM 96.1°F35.6°C 63.0°F17.2°C 33% 2.0 mph E3.2 kmh E 5.0 mph8.0 kmh 29.78 in1008.5 mb 0.00 in0.0 mm 0.00 in0.0 mm 0.00 in0.0 mm
11:35 AM 95.9°F35.5°C 63.0°F17.2°C 34% 2.0 mph N3.2 kmh N 5.0 mph8.0 kmh 29.78 in1008.5 mb 0.00 in0.0 mm 0.00 in0.0 mm 0.00 in0.0 mm
11:36 AM 95.9°F35.5°C 63.0°F17.2°C 34% 2.0 mph NW3.2 kmh NW 5.0 mph8.0 kmh 29.78 in1008.5 mb 0.00 in0.0 mm 0.00 in0.0 mm 0.00 in0.0 mm
11:40 AM 96.3°F35.7°C 62.5°F16.9°C 33% 2.0 mph NW3.2 kmh NW 4.0 mph6.4 kmh 29.78 in1008.5 mb 0.00 in0.0 mm 0.00 in0.0 mm 0.00 in0.0 mm
11:41 AM 96.3°F35.7°C 64.0°F17.8°C 34% 1.0 mph WSW1.6 kmh WSW 4.0 mph6.4 kmh 29.78 in1008.5 mb 0.00 in0.0 mm 0.00 in0.0 mm 0.00 in0.0 mm
11:45 AM 96.8°F36.0°C 62.1°F16.7°C 32% 2.0 mph SW3.2 kmh SW 5.0 mph8.0 kmh 29.78 in1008.5 mb 0.00 in0.0 mm 0.00 in0.0 mm 0.00 in0.0 mm
11:46 AM 96.8°F36.0°C 62.0°F16.7°C 32% 1.0 mph S1.6 kmh S 4.0 mph6.4 kmh 29.78 in1008.5 mb 0.00 in0.0 mm 0.00 in0.0 mm 0.00 in0.0 mm
11:50 AM 97.4°F36.3°C 62.6°F17.0°C 32% 2.0 mph SW3.2 kmh SW 5.0 mph8.0 kmh 29.78 in1008.5 mb 0.00 in0.0 mm 0.00 in0.0 mm 0.00 in0.0 mm
11:51 AM 97.5°F36.4°C 63.0°F17.2°C 32% 1.0 mph WSW1.6 kmh WSW 4.0 mph6.4 kmh 29.78 in1008.5 mb 0.00 in0.0 mm 0.00 in0.0 mm 0.00 in0.0 mm
11:55 AM 97.4°F36.3°C 61.7°F16.5°C 31% 2.0 mph S3.2 kmh S 4.0 mph6.4 kmh 29.78 in1008.5 mb 0.00 in0.0 mm 0.00 in0.0 mm 0.00 in0.0 mm
11:56 AM 97.4°F36.3°C 62.0°F16.7°C 31% 1.0 mph ESE1.6 kmh ESE 4.0 mph6.4 kmh 29.78 in1008.5 mb 0.00 in0.0 mm 0.00 in0.0 mm 0.00 in0.0 mm
12:00 PM 97.8°F36.6°C 62.9°F17.2°C 32% 2.0 mph E3.2 kmh E 5.0 mph8.0 kmh 29.78 in1008.5 mb 0.00 in0.0 mm 0.00 in0.0 mm 0.00 in0.0 mm
12:01 PM 97.7°F36.5°C 63.0°F17.2°C 32% 2.0 mph WNW3.2 kmh WNW 6.0 mph9.7 kmh 29.77 in1008.1 mb 0.00 in0.0 mm 0.00 in0.0 mm 0.00 in0.0 mm
12:05 PM 97.5°F36.4°C 62.7°F17.1°C 32% 3.0 mph W4.8 kmh W 10.0 mph16.1 kmh 29.77 in1008.1 mb 0.00 in0.0 mm 0.00 in0.0 mm 0.00 in0.0 mm
12:06 PM 97.5°F36.4°C 63.0°F17.2°C 32% 3.0 mph W4.8 kmh W 10.0 mph16.1 kmh 29.77 in1008.1 mb 0.00 in0.0 mm 0.00 in0.0 mm 0.00 in0.0 mm
12:10 PM 97.2°F36.2°C 61.5°F16.4°C 31% 3.0 mph W4.8 kmh W 10.0 mph16.1 kmh 29.77 in1008.1 mb 0.00 in0.0 mm 0.00 in0.0 mm 0.00 in0.0 mm
12:11 PM 97.2°F36.2°C 62.0°F16.7°C 31% 2.0 mph SW3.2 kmh SW 10.0 mph16.1 kmh 29.77 in1008.1 mb 0.00 in0.0 mm 0.00 in0.0 mm 0.00 in0.0 mm
12:15 PM 97.2°F36.2°C 61.5°F16.4°C 31% 2.0 mph W3.2 kmh W 6.0 mph9.7 kmh 29.77 in1008.1 mb 0.00 in0.0 mm 0.00 in0.0 mm 0.00 in0.0 mm
12:16 PM 97.2°F36.2°C 62.0°F16.7°C 31% 2.0 mph W3.2 kmh W 5.0 mph8.0 kmh 29.77 in1008.1 mb 0.00 in0.0 mm 0.00 in0.0 mm 0.00 in0.0 mm
12:20 PM 97.6°F36.4°C 60.9°F16.1°C 30% 3.0 mph SW4.8 kmh SW 6.0 mph9.7 kmh 29.77 in1008.1 mb 0.00 in0.0 mm 0.00 in0.0 mm 0.00 in0.0 mm
12:21 PM 97.7°F36.5°C 61.0°F16.1°C 30% 3.0 mph SSW4.8 kmh SSW 6.0 mph9.7 kmh 29.77 in1008.1 mb 0.00 in0.0 mm 0.00 in0.0 mm 0.00 in0.0 mm
12:25 PM 97.9°F36.6°C 61.2°F16.2°C 30% 3.0 mph SSW4.8 kmh SSW 6.0 mph9.7 kmh 29.77 in1008.1 mb 0.00 in0.0 mm 0.00 in0.0 mm 0.00 in0.0 mm
12:26 PM 97.9°F36.6°C 62.0°F16.7°C 30% 2.0 mph SSE3.2 kmh SSE 6.0 mph9.7 kmh 29.77 in1008.1 mb 0.00 in0.0 mm 0.00 in0.0 mm 0.00 in0.0 mm
12:30 PM 98.3°F36.8°C 61.5°F16.4°C 30% 2.0 mph S3.2 kmh S 6.0 mph9.7 kmh 29.76 in1007.8 mb 0.00 in0.0 mm 0.00 in0.0 mm 0.00 in0.0 mm
12:31 PM 98.3°F36.8°C 62.0°F16.7°C 30% 2.0 mph NE3.2 kmh NE 5.0 mph8.0 kmh 29.76 in1007.8 mb 0.00 in0.0 mm 0.00 in0.0 mm 0.00 in0.0 mm
12:35 PM 97.6°F36.4°C 61.9°F16.6°C 31% 3.0 mph E4.8 kmh E 9.0 mph14.5 kmh 29.76 in1007.8 mb 0.00 in0.0 mm 0.00 in0.0 mm 0.00 in0.0 mm
12:36 PM 97.6°F36.4°C 62.0°F16.7°C 31% 7.0 mph WNW11.3 kmh WNW 9.0 mph14.5 kmh 29.76 in1007.8 mb 0.00 in0.0 mm 0.00 in0.0 mm 0.00 in0.0 mm
12:40 PM 96.6°F35.9°C 61.9°F16.6°C 32% 4.0 mph NNW6.4 kmh NNW 9.0 mph14.5 kmh 29.76 in1007.8 mb 0.00 in0.0 mm 0.00 in0.0 mm 0.00 in0.0 mm
12:41 PM 96.5°F35.8°C 62.0°F16.7°C 32% 4.0 mph WSW6.4 kmh WSW 9.0 mph14.5 kmh 29.76 in1007.8 mb 0.00 in0.0 mm 0.00 in0.0 mm 0.00 in0.0 mm
12:45 PM 96.3°F35.7°C 60.7°F15.9°C 31% 4.0 mph NW6.4 kmh NW 9.0 mph14.5 kmh 29.76 in1007.8 mb 0.00 in0.0 mm 0.00 in0.0 mm 0.00 in0.0 mm
12:46 PM 96.3°F35.7°C 61.0°F16.1°C 31% 1.0 mph NNW1.6 kmh NNW 9.0 mph14.5 kmh 29.76 in1007.8 mb 0.00 in0.0 mm 0.00 in0.0 mm 0.00 in0.0 mm
12:50 PM 96.1°F35.6°C 60.6°F15.9°C 31% 3.0 mph NW4.8 kmh NW 8.0 mph12.9 kmh 29.75 in1007.5 mb 0.00 in0.0 mm 0.00 in0.0 mm 0.00 in0.0 mm
12:51 PM 96.0°F35.6°C 62.0°F16.7°C 32% 3.0 mph NNW4.8 kmh NNW 8.0 mph12.9 kmh 29.75 in1007.5 mb 0.00 in0.0 mm 0.00 in0.0 mm 0.00 in0.0 mm
12:55 PM 95.6°F35.3°C 61.0°F16.1°C 32% 4.0 mph N6.4 kmh N 9.0 mph14.5 kmh 29.75 in1007.5 mb 0.00 in0.0 mm 0.00 in0.0 mm 0.00 in0.0 mm
12:56 PM 95.6°F35.3°C 61.0°F16.1°C 32% 4.0 mph NNE6.4 kmh NNE 9.0 mph14.5 kmh 29.75 in1007.5 mb 0.00 in0.0 mm 0.00 in0.0 mm 0.00 in0.0 mm
01:00 PM 95.4°F35.2°C 60.9°F16.1°C 32% 4.0 mph N6.4 kmh N 9.0 mph14.5 kmh 29.75 in1007.5 mb 0.00 in0.0 mm 0.00 in0.0 mm 0.00 in0.0 mm
01:01 PM 95.3°F35.2°C 61.0°F16.1°C 32% 5.0 mph N8.0 kmh N 9.0 mph14.5 kmh 29.75 in1007.5 mb 0.00 in0.0 mm 0.00 in0.0 mm 0.00 in0.0 mm
01:05 PM 95.0°F35.0°C 60.5°F15.8°C 32% 4.0 mph NNW6.4 kmh NNW 9.0 mph14.5 kmh 29.75 in1007.5 mb 0.00 in0.0 mm 0.00 in0.0 mm 0.00 in0.0 mm
01:06 PM 95.0°F35.0°C 61.0°F16.1°C 32% 3.0 mph SW4.8 kmh SW 9.0 mph14.5 kmh 29.75 in1007.5 mb 0.00 in0.0 mm 0.00 in0.0 mm 0.00 in0.0 mm
01:10 PM 95.4°F35.2°C 60.9°F16.1°C 32% 4.0 mph WNW6.4 kmh WNW 8.0 mph12.9 kmh 29.74 in1007.1 mb 0.00 in0.0 mm 0.00 in0.0 mm 0.00 in0.0 mm
01:11 PM 95.5°F35.3°C 61.0°F16.1°C 32% 3.0 mph SW4.8 kmh SW 8.0 mph12.9 kmh 29.74 in1007.1 mb 0.00 in0.0 mm 0.00 in0.0 mm 0.00 in0.0 mm
01:16 PM 95.5°F35.3°C 61.0°F16.1°C 32% 3.0 mph SW4.8 kmh SW 8.0 mph12.9 kmh 29.74 in1007.1 mb 0.00 in0.0 mm 0.00 in0.0 mm 0.00 in0.0 mm
01:20 PM 96.1°F35.6°C 61.5°F16.4°C 32% 4.0 mph N6.4 kmh N 8.0 mph12.9 kmh 29.74 in1007.1 mb 0.00 in0.0 mm 0.00 in0.0 mm 0.00 in0.0 mm
01:21 PM 95.5°F35.3°C 61.0°F16.1°C 32% 3.0 mph SW4.8 kmh SW 8.0 mph12.9 kmh 29.74 in1007.1 mb 0.00 in0.0 mm 0.00 in0.0 mm 0.00 in0.0 mm
01:25 PM 96.0°F35.6°C 61.4°F16.3°C 32% 3.0 mph NE4.8 kmh NE 8.0 mph12.9 kmh 29.73 in1006.8 mb 0.00 in0.0 mm 0.00 in0.0 mm 0.00 in0.0 mm
01:26 PM 95.9°F35.5°C 61.0°F16.1°C 31% 5.0 mph NW8.0 kmh NW 8.0 mph12.9 kmh 29.73 in1006.8 mb 0.00 in0.0 mm 0.00 in0.0 mm 0.00 in0.0 mm
01:30 PM 95.9°F35.5°C 60.4°F15.8°C 31% 4.0 mph NNE6.4 kmh NNE 9.0 mph14.5 kmh 29.73 in1006.8 mb 0.00 in0.0 mm 0.00 in0.0 mm 0.00 in0.0 mm
01:31 PM 95.9°F35.5°C 61.0°F16.1°C 31% 4.0 mph NW6.4 kmh NW 9.0 mph14.5 kmh 29.73 in1006.8 mb 0.00 in0.0 mm 0.00 in0.0 mm 0.00 in0.0 mm
01:35 PM 95.8°F35.4°C 60.3°F15.7°C 31% 4.0 mph N6.4 kmh N 9.0 mph14.5 kmh 29.73 in1006.8 mb 0.00 in0.0 mm 0.00 in0.0 mm 0.00 in0.0 mm
01:36 PM 95.8°F35.4°C 61.0°F16.1°C 31% 1.0 mph N1.6 kmh N 9.0 mph14.5 kmh 29.73 in1006.8 mb 0.00 in0.0 mm 0.00 in0.0 mm 0.00 in0.0 mm
01:40 PM 95.6°F35.3°C 61.0°F16.1°C 32% 3.0 mph N4.8 kmh N 8.0 mph12.9 kmh 29.73 in1006.8 mb 0.00 in0.0 mm 0.00 in0.0 mm 0.00 in0.0 mm
01:41 PM 95.7°F35.4°C 61.0°F16.1°C 32% 2.0 mph NNW3.2 kmh NNW 11.0 mph17.7 kmh 29.73 in1006.8 mb 0.00 in0.0 mm 0.00 in0.0 mm 0.00 in0.0 mm
01:46 PM 96.2°F35.7°C 61.0°F16.1°C 31% 4.0 mph W6.4 kmh W 12.0 mph19.3 kmh 29.72 in1006.4 mb 0.00 in0.0 mm 0.00 in0.0 mm 0.00 in0.0 mm
01:51 PM 96.4°F35.8°C 60.0°F15.6°C 30% 4.0 mph N6.4 kmh N 12.0 mph19.3 kmh 29.72 in1006.4 mb 0.00 in0.0 mm 0.00 in0.0 mm 0.00 in0.0 mm
01:56 PM 96.7°F35.9°C 61.0°F16.1°C 30% 7.0 mph WNW11.3 kmh WNW 11.0 mph17.7 kmh 29.72 in1006.4 mb 0.00 in0.0 mm 0.00 in0.0 mm 0.00 in0.0 mm
02:01 PM 97.0°F36.1°C 61.0°F16.1°C 30% 3.0 mph NW4.8 kmh NW 11.0 mph17.7 kmh 29.72 in1006.4 mb 0.00 in0.0 mm 0.00 in0.0 mm 0.00 in0.0 mm
02:05 PM 97.6°F36.4°C 60.0°F15.6°C 29% 2.0 mph W3.2 kmh W 4.0 mph6.4 kmh 29.71 in1006.1 mb 0.00 in0.0 mm 0.00 in0.0 mm 0.00 in0.0 mm
02:06 PM 97.8°F36.6°C 61.0°F16.1°C 29% 2.0 mph WSW3.2 kmh WSW 9.0 mph14.5 kmh 29.71 in1006.1 mb 0.00 in0.0 mm 0.00 in0.0 mm 0.00 in0.0 mm
02:10 PM 98.1°F36.7°C 60.4°F15.8°C 29% 3.0 mph W4.8 kmh W 9.0 mph14.5 kmh 29.71 in1006.1 mb 0.00 in0.0 mm 0.00 in0.0 mm 0.00 in0.0 mm
02:11 PM 98.1°F36.7°C 61.0°F16.1°C 29% 4.0 mph W6.4 kmh W 9.0 mph14.5 kmh 29.71 in1006.1 mb 0.00 in0.0 mm 0.00 in0.0 mm 0.00 in0.0 mm
02:15 PM 98.5°F36.9°C 59.8°F15.4°C 28% 4.0 mph W6.4 kmh W 9.0 mph14.5 kmh 29.71 in1006.1 mb 0.00 in0.0 mm 0.00 in0.0 mm 0.00 in0.0 mm
02:16 PM 98.5°F36.9°C 60.0°F15.6°C 28% 3.0 mph WSW4.8 kmh WSW 9.0 mph14.5 kmh 29.71 in1006.1 mb 0.00 in0.0 mm 0.00 in0.0 mm 0.00 in0.0 mm
02:20 PM 98.8°F37.1°C 59.0°F15.0°C 27% 3.0 mph WSW4.8 kmh WSW 8.0 mph12.9 kmh 29.71 in1006.1 mb 0.00 in0.0 mm 0.00 in0.0 mm 0.00 in0.0 mm
02:21 PM 98.8°F37.1°C 59.0°F15.0°C 27% 3.0 mph SSW4.8 kmh SSW 8.0 mph12.9 kmh 29.71 in1006.1 mb 0.00 in0.0 mm 0.00 in0.0 mm 0.00 in0.0 mm
02:25 PM 99.5°F37.5°C 59.6°F15.3°C 27% 3.0 mph SW4.8 kmh SW 8.0 mph12.9 kmh 29.71 in1006.1 mb 0.00 in0.0 mm 0.00 in0.0 mm 0.00 in0.0 mm
02:26 PM 99.6°F37.6°C 60.0°F15.6°C 27% 3.0 mph NW4.8 kmh NW 8.0 mph12.9 kmh 29.71 in1006.1 mb 0.00 in0.0 mm 0.00 in0.0 mm 0.00 in0.0 mm
02:30 PM 99.2°F37.3°C 58.3°F14.6°C 26% 2.0 mph NW3.2 kmh NW 6.0 mph9.7 kmh 29.70 in1005.8 mb 0.00 in0.0 mm 0.00 in0.0 mm 0.00 in0.0 mm
02:31 PM 99.2°F37.3°C 59.0°F15.0°C 26% 2.0 mph NNE3.2 kmh NNE 6.0 mph9.7 kmh 29.70 in1005.8 mb 0.00 in0.0 mm 0.00 in0.0 mm 0.00 in0.0 mm
02:35 PM 98.7°F37.1°C 58.9°F14.9°C 27% 3.0 mph NW4.8 kmh NW 8.0 mph12.9 kmh 29.70 in1005.8 mb 0.00 in0.0 mm 0.00 in0.0 mm 0.00 in0.0 mm
02:36 PM 98.7°F37.1°C 59.0°F15.0°C 27% 6.0 mph W9.7 kmh W 8.0 mph12.9 kmh 29.70 in1005.8 mb 0.00 in0.0 mm 0.00 in0.0 mm 0.00 in0.0 mm
02:40 PM 98.4°F36.9°C 59.7°F15.4°C 28% 3.0 mph NW4.8 kmh NW 8.0 mph12.9 kmh 29.70 in1005.8 mb 0.00 in0.0 mm 0.00 in0.0 mm 0.00 in0.0 mm
02:41 PM 98.4°F36.9°C 60.0°F15.6°C 28% 3.0 mph NNE4.8 kmh NNE 8.0 mph12.9 kmh 29.70 in1005.8 mb 0.00 in0.0 mm 0.00 in0.0 mm 0.00 in0.0 mm
02:45 PM 98.1°F36.7°C 60.4°F15.8°C 29% 3.0 mph NW4.8 kmh NW 7.0 mph11.3 kmh 29.70 in1005.8 mb 0.00 in0.0 mm 0.00 in0.0 mm 0.00 in0.0 mm
02:46 PM 98.1°F36.7°C 61.0°F16.1°C 29% 4.0 mph WNW6.4 kmh WNW 9.0 mph14.5 kmh 29.70 in1005.8 mb 0.00 in0.0 mm 0.00 in0.0 mm 0.00 in0.0 mm
02:50 PM 98.3°F36.8°C 59.6°F15.3°C 28% 3.0 mph NW4.8 kmh NW 10.0 mph16.1 kmh 29.69 in1005.4 mb 0.00 in0.0 mm 0.00 in0.0 mm 0.00 in0.0 mm
02:51 PM 98.3°F36.8°C 60.0°F15.6°C 28% 2.0 mph SW3.2 kmh SW 10.0 mph16.1 kmh 29.69 in1005.4 mb 0.00 in0.0 mm 0.00 in0.0 mm 0.00 in0.0 mm
02:55 PM 99.0°F37.2°C 60.2°F15.7°C 28% 3.0 mph W4.8 kmh W 10.0 mph16.1 kmh 29.69 in1005.4 mb 0.00 in0.0 mm 0.00 in0.0 mm 0.00 in0.0 mm
02:56 PM 99.0°F37.2°C 60.0°F15.6°C 27% 1.0 mph W1.6 kmh W 10.0 mph16.1 kmh 29.69 in1005.4 mb 0.00 in0.0 mm 0.00 in0.0 mm 0.00 in0.0 mm
03:00 PM 99.0°F37.2°C 59.2°F15.1°C 27% 3.0 mph NW4.8 kmh NW 9.0 mph14.5 kmh 29.69 in1005.4 mb 0.00 in0.0 mm 0.00 in0.0 mm 0.00 in0.0 mm
03:01 PM 99.0°F37.2°C 60.0°F15.6°C 27% 3.0 mph N4.8 kmh N 9.0 mph14.5 kmh 29.69 in1005.4 mb 0.00 in0.0 mm 0.00 in0.0 mm 0.00 in0.0 mm
03:05 PM 98.7°F37.1°C 59.9°F15.5°C 28% 4.0 mph NW6.4 kmh NW 12.0 mph19.3 kmh 29.69 in1005.4 mb 0.00 in0.0 mm 0.00 in0.0 mm 0.00 in0.0 mm
03:06 PM 98.6°F37.0°C 60.0°F15.6°C 28% 6.0 mph W9.7 kmh W 12.0 mph19.3 kmh 29.69 in1005.4 mb 0.00 in0.0 mm 0.00 in0.0 mm 0.00 in0.0 mm
03:10 PM 98.4°F36.9°C 60.7°F15.9°C 29% 4.0 mph WNW6.4 kmh WNW 12.0 mph19.3 kmh 29.68 in1005.1 mb 0.00 in0.0 mm 0.00 in0.0 mm 0.00 in0.0 mm
03:11 PM 98.4°F36.9°C 61.0°F16.1°C 29% 1.0 mph WNW1.6 kmh WNW 12.0 mph19.3 kmh 29.68 in1005.1 mb 0.00 in0.0 mm 0.00 in0.0 mm 0.00 in0.0 mm
03:15 PM 98.4°F36.9°C 60.7°F15.9°C 29% 3.0 mph W4.8 kmh W 9.0 mph14.5 kmh 29.69 in1005.4 mb 0.00 in0.0 mm 0.00 in0.0 mm 0.00 in0.0 mm
03:16 PM 98.4°F36.9°C 60.0°F15.6°C 28% 5.0 mph SW8.0 kmh SW 8.0 mph12.9 kmh 29.68 in1005.1 mb 0.00 in0.0 mm 0.00 in0.0 mm 0.00 in0.0 mm
03:20 PM 98.3°F36.8°C 59.6°F15.3°C 28% 4.0 mph W6.4 kmh W 10.0 mph16.1 kmh 29.68 in1005.1 mb 0.00 in0.0 mm 0.00 in0.0 mm 0.00 in0.0 mm
03:21 PM 98.3°F36.8°C 60.0°F15.6°C 28% 9.0 mph W14.5 kmh W 10.0 mph16.1 kmh 29.68 in1005.1 mb 0.00 in0.0 mm 0.00 in0.0 mm 0.00 in0.0 mm
03:25 PM 98.2°F36.8°C 59.5°F15.3°C 28% 5.0 mph W8.0 kmh W 10.0 mph16.1 kmh 29.68 in1005.1 mb 0.00 in0.0 mm 0.00 in0.0 mm 0.00 in0.0 mm
03:26 PM 98.3°F36.8°C 60.0°F15.6°C 28% 8.0 mph NW12.9 kmh NW 10.0 mph16.1 kmh 29.68 in1005.1 mb 0.00 in0.0 mm 0.00 in0.0 mm 0.00 in0.0 mm
03:30 PM 98.5°F36.9°C 59.8°F15.4°C 28% 5.0 mph W8.0 kmh W 9.0 mph14.5 kmh 29.68 in1005.1 mb 0.00 in0.0 mm 0.00 in0.0 mm 0.00 in0.0 mm
03:31 PM 98.5°F36.9°C 60.0°F15.6°C 28% 4.0 mph SW6.4 kmh SW 9.0 mph14.5 kmh 29.68 in1005.1 mb 0.00 in0.0 mm 0.00 in0.0 mm 0.00 in0.0 mm
03:35 PM 98.6°F37.0°C 59.9°F15.5°C 28% 5.0 mph WNW8.0 kmh WNW 9.0 mph14.5 kmh 29.68 in1005.1 mb 0.00 in0.0 mm 0.00 in0.0 mm 0.00 in0.0 mm
03:36 PM 98.6°F37.0°C 60.0°F15.6°C 28% 6.0 mph W9.7 kmh W 9.0 mph14.5 kmh 29.68 in1005.1 mb 0.00 in0.0 mm 0.00 in0.0 mm 0.00 in0.0 mm
03:40 PM 98.6°F37.0°C 59.9°F15.5°C 28% 4.0 mph WNW6.4 kmh WNW 9.0 mph14.5 kmh 29.68 in1005.1 mb 0.00 in0.0 mm 0.00 in0.0 mm 0.00 in0.0 mm
03:41 PM 98.6°F37.0°C 60.0°F15.6°C 28% 6.0 mph NW9.7 kmh NW 9.0 mph14.5 kmh 29.68 in1005.1 mb 0.00 in0.0 mm 0.00 in0.0 mm 0.00 in0.0 mm
03:45 PM 98.5°F36.9°C 59.8°F15.4°C 28% 5.0 mph WNW8.0 kmh WNW 12.0 mph19.3 kmh 29.68 in1005.1 mb 0.00 in0.0 mm 0.00 in0.0 mm 0.00 in0.0 mm
03:46 PM 98.5°F36.9°C 60.0°F15.6°C 28% 6.0 mph SW9.7 kmh SW 12.0 mph19.3 kmh 29.68 in1005.1 mb 0.00 in0.0 mm 0.00 in0.0 mm 0.00 in0.0 mm
03:50 PM 98.4°F36.9°C 60.7°F15.9°C 29% 6.0 mph WNW9.7 kmh WNW 12.0 mph19.3 kmh 29.68 in1005.1 mb 0.00 in0.0 mm 0.00 in0.0 mm 0.00 in0.0 mm
03:51 PM 98.4°F36.9°C 61.0°F16.1°C 29% 3.0 mph NW4.8 kmh NW 12.0 mph19.3 kmh 29.68 in1005.1 mb 0.00 in0.0 mm 0.00 in0.0 mm 0.00 in0.0 mm
03:55 PM 98.4°F36.9°C 59.7°F15.4°C 28% 6.0 mph W9.7 kmh W 11.0 mph17.7 kmh 29.68 in1005.1 mb 0.00 in0.0 mm 0.00 in0.0 mm 0.00 in0.0 mm
03:56 PM 98.4°F36.9°C 60.0°F15.6°C 28% 4.0 mph WNW6.4 kmh WNW 12.0 mph19.3 kmh 29.68 in1005.1 mb 0.00 in0.0 mm 0.00 in0.0 mm 0.00 in0.0 mm
04:00 PM 98.1°F36.7°C 59.4°F15.2°C 28% 6.0 mph W9.7 kmh W 12.0 mph19.3 kmh 29.68 in1005.1 mb 0.00 in0.0 mm 0.00 in0.0 mm 0.00 in0.0 mm
04:01 PM 98.1°F36.7°C 60.0°F15.6°C 28% 3.0 mph WNW4.8 kmh WNW 12.0 mph19.3 kmh 29.68 in1005.1 mb 0.00 in0.0 mm 0.00 in0.0 mm 0.00 in0.0 mm
04:05 PM 97.8°F36.6°C 59.2°F15.1°C 28% 4.0 mph WNW6.4 kmh WNW 12.0 mph19.3 kmh 29.68 in1005.1 mb 0.00 in0.0 mm 0.00 in0.0 mm 0.00 in0.0 mm
04:06 PM 97.8°F36.6°C 60.0°F15.6°C 28% 4.0 mph NW6.4 kmh NW 9.0 mph14.5 kmh 29.68 in1005.1 mb 0.00 in0.0 mm 0.00 in0.0 mm 0.00 in0.0 mm
04:10 PM 97.5°F36.4°C 58.9°F14.9°C 28% 3.0 mph WNW4.8 kmh WNW 8.0 mph12.9 kmh 29.67 in1004.7 mb 0.00 in0.0 mm 0.00 in0.0 mm 0.00 in0.0 mm
04:11 PM 97.5°F36.4°C 59.0°F15.0°C 28% 2.0 mph NW3.2 kmh NW 8.0 mph12.9 kmh 29.67 in1004.7 mb 0.00 in0.0 mm 0.00 in0.0 mm 0.00 in0.0 mm
04:15 PM 97.6°F36.4°C 59.0°F15.0°C 28% 4.0 mph W6.4 kmh W 8.0 mph12.9 kmh 29.67 in1004.7 mb 0.00 in0.0 mm 0.00 in0.0 mm 0.00 in0.0 mm
04:16 PM 97.6°F36.4°C 60.0°F15.6°C 29% 7.0 mph WSW11.3 kmh WSW 7.0 mph11.3 kmh 29.67 in1004.7 mb 0.00 in0.0 mm 0.00 in0.0 mm 0.00 in0.0 mm
04:20 PM 97.7°F36.5°C 59.1°F15.1°C 28% 5.0 mph W8.0 kmh W 14.0 mph22.5 kmh 29.67 in1004.7 mb 0.00 in0.0 mm 0.00 in0.0 mm 0.00 in0.0 mm
04:21 PM 97.7°F36.5°C 59.0°F15.0°C 28% 7.0 mph W11.3 kmh W 14.0 mph22.5 kmh 29.67 in1004.7 mb 0.00 in0.0 mm 0.00 in0.0 mm 0.00 in0.0 mm
04:25 PM 97.7°F36.5°C 59.1°F15.1°C 28% 6.0 mph WSW9.7 kmh WSW 14.0 mph22.5 kmh 29.67 in1004.7 mb 0.00 in0.0 mm 0.00 in0.0 mm 0.00 in0.0 mm
04:26 PM 97.7°F36.5°C 58.0°F14.4°C 27% 5.0 mph WSW8.0 kmh WSW 14.0 mph22.5 kmh 29.67 in1004.7 mb 0.00 in0.0 mm 0.00 in0.0 mm 0.00 in0.0 mm
04:30 PM 97.3°F36.3°C 57.7°F14.3°C 27% 6.0 mph WSW9.7 kmh WSW 12.0 mph19.3 kmh 29.67 in1004.7 mb 0.00 in0.0 mm 0.00 in0.0 mm 0.00 in0.0 mm
04:31 PM 97.1°F36.2°C 59.0°F15.0°C 28% 3.0 mph NW4.8 kmh NW 12.0 mph19.3 kmh 29.67 in1004.7 mb 0.00 in0.0 mm 0.00 in0.0 mm 0.00 in0.0 mm
04:35 PM 96.9°F36.1°C 58.4°F14.7°C 28% 5.0 mph WSW8.0 kmh WSW 12.0 mph19.3 kmh 29.67 in1004.7 mb 0.00 in0.0 mm 0.00 in0.0 mm 0.00 in0.0 mm
04:36 PM 96.9°F36.1°C 59.0°F15.0°C 28% 4.0 mph NW6.4 kmh NW 9.0 mph14.5 kmh 29.67 in1004.7 mb 0.00 in0.0 mm 0.00 in0.0 mm 0.00 in0.0 mm
04:40 PM 96.9°F36.1°C 58.4°F14.7°C 28% 4.0 mph W6.4 kmh W 8.0 mph12.9 kmh 29.67 in1004.7 mb 0.00 in0.0 mm 0.00 in0.0 mm 0.00 in0.0 mm
04:41 PM 96.9°F36.1°C 59.0°F15.0°C 28% 5.0 mph SW8.0 kmh SW 8.0 mph12.9 kmh 29.67 in1004.7 mb 0.00 in0.0 mm 0.00 in0.0 mm 0.00 in0.0 mm
04:45 PM 96.6°F35.9°C 58.2°F14.6°C 28% 5.0 mph WSW8.0 kmh WSW 9.0 mph14.5 kmh 29.67 in1004.7 mb 0.00 in0.0 mm 0.00 in0.0 mm 0.00 in0.0 mm
04:46 PM 96.5°F35.8°C 58.0°F14.4°C 28% 3.0 mph WSW4.8 kmh WSW 9.0 mph14.5 kmh 29.67 in1004.7 mb 0.00 in0.0 mm 0.00 in0.0 mm 0.00 in0.0 mm
04:50 PM 96.2°F35.7°C 57.8°F14.3°C 28% 4.0 mph WSW6.4 kmh WSW 9.0 mph14.5 kmh 29.67 in1004.7 mb 0.00 in0.0 mm 0.00 in0.0 mm 0.00 in0.0 mm
04:51 PM 96.2°F35.7°C 58.0°F14.4°C 28% 4.0 mph W6.4 kmh W 9.0 mph14.5 kmh 29.67 in1004.7 mb 0.00 in0.0 mm 0.00 in0.0 mm 0.00 in0.0 mm
04:55 PM 95.8°F35.4°C 57.5°F14.2°C 28% 4.0 mph WSW6.4 kmh WSW 8.0 mph12.9 kmh 29.67 in1004.7 mb 0.00 in0.0 mm 0.00 in0.0 mm 0.00 in0.0 mm
04:56 PM 95.7°F35.4°C 58.0°F14.4°C 28% 2.0 mph WSW3.2 kmh WSW 9.0 mph14.5 kmh 29.67 in1004.7 mb 0.00 in0.0 mm 0.00 in0.0 mm 0.00 in0.0 mm
05:00 PM 95.4°F35.2°C 58.1°F14.5°C 29% 5.0 mph WSW8.0 kmh WSW 9.0 mph14.5 kmh 29.66 in1004.4 mb 0.00 in0.0 mm 0.00 in0.0 mm 0.00 in0.0 mm
05:36 PM 96.8°F36.0°C 57.0°F13.9°C 26% 4.0 mph W6.4 kmh W 11.0 mph17.7 kmh 29.66 in1004.4 mb 0.00 in0.0 mm 0.00 in0.0 mm 0.00 in0.0 mm
05:55 PM 96.8°F36.0°C 55.2°F12.9°C 25% 4.0 mph WNW6.4 kmh WNW 10.0 mph16.1 kmh 29.66 in1004.4 mb 0.00 in0.0 mm 0.00 in0.0 mm 0.00 in0.0 mm
07:56 PM 90.5°F32.5°C 61.0°F16.1°C 37% Calm Calm 2.0 mph3.2 kmh 29.71 in1006.1 mb 0.00 in0.0 mm 0.00 in0.0 mm 0.00 in0.0 mm
08:26 PM 88.4°F31.3°C 62.0°F16.7°C 41% 5.0 mph SSE8.0 kmh SSE 9.0 mph14.5 kmh 29.73 in1006.8 mb 0.00 in0.0 mm 0.00 in0.0 mm 0.00 in0.0 mm
08:30 PM 88.0°F31.1°C 62.0°F16.7°C 42% 4.0 mph SSE6.4 kmh SSE 8.0 mph12.9 kmh 29.73 in1006.8 mb 0.00 in0.0 mm 0.00 in0.0 mm 0.00 in0.0 mm
08:31 PM 88.0°F31.1°C 62.0°F16.7°C 42% 3.0 mph SE4.8 kmh SE 8.0 mph12.9 kmh 29.73 in1006.8 mb 0.00 in0.0 mm 0.00 in0.0 mm 0.00 in0.0 mm
08:35 PM 87.5°F30.8°C 62.2°F16.8°C 43% 4.0 mph SSE6.4 kmh SSE 9.0 mph14.5 kmh 29.73 in1006.8 mb 0.00 in0.0 mm 0.00 in0.0 mm 0.00 in0.0 mm
08:36 PM 87.4°F30.8°C 62.0°F16.7°C 43% 4.0 mph S6.4 kmh S 9.0 mph14.5 kmh 29.73 in1006.8 mb 0.00 in0.0 mm 0.00 in0.0 mm 0.00 in0.0 mm
08:40 PM 87.0°F30.6°C 62.5°F16.9°C 44% 5.0 mph SSE8.0 kmh SSE 11.0 mph17.7 kmh 29.73 in1006.8 mb 0.00 in0.0 mm 0.00 in0.0 mm 0.00 in0.0 mm
08:41 PM 87.0°F30.6°C 63.0°F17.2°C 44% 3.0 mph SE4.8 kmh SE 11.0 mph17.7 kmh 29.73 in1006.8 mb 0.00 in0.0 mm 0.00 in0.0 mm 0.00 in0.0 mm
08:45 PM 86.6°F30.3°C 62.7°F17.1°C 45% 5.0 mph SSE8.0 kmh SSE 11.0 mph17.7 kmh 29.73 in1006.8 mb 0.00 in0.0 mm 0.00 in0.0 mm 0.00 in0.0 mm
08:46 PM 86.5°F30.3°C 63.0°F17.2°C 45% 3.0 mph SE4.8 kmh SE 11.0 mph17.7 kmh 29.73 in1006.8 mb 0.00 in0.0 mm 0.00 in0.0 mm 0.00 in0.0 mm
08:50 PM 86.1°F30.1°C 62.9°F17.2°C 46% 6.0 mph SSE9.7 kmh SSE 12.0 mph19.3 kmh 29.73 in1006.8 mb 0.00 in0.0 mm 0.00 in0.0 mm 0.00 in0.0 mm
08:51 PM 86.1°F30.1°C 63.0°F17.2°C 46% 9.0 mph SE14.5 kmh SE 11.0 mph17.7 kmh 29.73 in1006.8 mb 0.00 in0.0 mm 0.00 in0.0 mm 0.00 in0.0 mm
08:55 PM 85.6°F29.8°C 62.4°F16.9°C 46% 7.0 mph SSE11.3 kmh SSE 12.0 mph19.3 kmh 29.73 in1006.8 mb 0.00 in0.0 mm 0.00 in0.0 mm 0.00 in0.0 mm
08:56 PM 85.5°F29.7°C 63.0°F17.2°C 47% 4.0 mph S6.4 kmh S 11.0 mph17.7 kmh 29.73 in1006.8 mb 0.00 in0.0 mm 0.00 in0.0 mm 0.00 in0.0 mm
09:00 PM 85.1°F29.5°C 62.6°F17.0°C 47% 6.0 mph SSE9.7 kmh SSE 14.0 mph22.5 kmh 29.74 in1007.1 mb 0.00 in0.0 mm 0.00 in0.0 mm 0.00 in0.0 mm
09:01 PM 85.1°F29.5°C 63.0°F17.2°C 47% 7.0 mph SE11.3 kmh SE 12.0 mph19.3 kmh 29.74 in1007.1 mb 0.00 in0.0 mm 0.00 in0.0 mm 0.00 in0.0 mm
09:05 PM 84.8°F29.3°C 62.9°F17.2°C 48% 6.0 mph SSE9.7 kmh SSE 14.0 mph22.5 kmh 29.74 in1007.1 mb 0.00 in0.0 mm 0.00 in0.0 mm 0.00 in0.0 mm
09:06 PM 84.8°F29.3°C 63.0°F17.2°C 48% 3.0 mph SE4.8 kmh SE 12.0 mph19.3 kmh 29.74 in1007.1 mb 0.00 in0.0 mm 0.00 in0.0 mm 0.00 in0.0 mm
09:10 PM 84.6°F29.2°C 62.7°F17.1°C 48% 5.0 mph SE8.0 kmh SE 9.0 mph14.5 kmh 29.74 in1007.1 mb 0.00 in0.0 mm 0.00 in0.0 mm 0.00 in0.0 mm
09:11 PM 84.6°F29.2°C 63.0°F17.2°C 48% 4.0 mph SE6.4 kmh SE 9.0 mph14.5 kmh 29.74 in1007.1 mb 0.00 in0.0 mm 0.00 in0.0 mm 0.00 in0.0 mm
09:15 PM 84.5°F29.2°C 62.7°F17.1°C 48% 4.0 mph SSE6.4 kmh SSE 9.0 mph14.5 kmh 29.75 in1007.5 mb 0.00 in0.0 mm 0.00 in0.0 mm 0.00 in0.0 mm
09:16 PM 84.4°F29.1°C 63.0°F17.2°C 48% 4.0 mph SE6.4 kmh SE 8.0 mph12.9 kmh 29.74 in1007.1 mb 0.00 in0.0 mm 0.00 in0.0 mm 0.00 in0.0 mm
09:20 PM 84.3°F29.1°C 62.5°F16.9°C 48% 5.0 mph SSE8.0 kmh SSE 9.0 mph14.5 kmh 29.75 in1007.5 mb 0.00 in0.0 mm 0.00 in0.0 mm 0.00 in0.0 mm
09:21 PM 84.3°F29.1°C 62.0°F16.7°C 48% 5.0 mph SSW8.0 kmh SSW 8.0 mph12.9 kmh 29.75 in1007.5 mb 0.00 in0.0 mm 0.00 in0.0 mm 0.00 in0.0 mm
09:25 PM 84.1°F28.9°C 62.3°F16.8°C 48% 5.0 mph SSE8.0 kmh SSE 9.0 mph14.5 kmh 29.75 in1007.5 mb 0.00 in0.0 mm 0.00 in0.0 mm 0.00 in0.0 mm
09:26 PM 84.1°F28.9°C 62.0°F16.7°C 48% 5.0 mph SSE8.0 kmh SSE 8.0 mph12.9 kmh 29.75 in1007.5 mb 0.00 in0.0 mm 0.00 in0.0 mm 0.00 in0.0 mm
09:30 PM 84.0°F28.9°C 62.8°F17.1°C 49% 5.0 mph SSE8.0 kmh SSE 8.0 mph12.9 kmh 29.75 in1007.5 mb 0.00 in0.0 mm 0.00 in0.0 mm 0.00 in0.0 mm
09:31 PM 84.0°F28.9°C 63.0°F17.2°C 49% 4.0 mph S6.4 kmh S 8.0 mph12.9 kmh 29.75 in1007.5 mb 0.00 in0.0 mm 0.00 in0.0 mm 0.00 in0.0 mm
09:35 PM 83.8°F28.8°C 62.6°F17.0°C 49% 4.0 mph S6.4 kmh S 10.0 mph16.1 kmh 29.75 in1007.5 mb 0.00 in0.0 mm 0.00 in0.0 mm 0.00 in0.0 mm
09:36 PM 83.8°F28.8°C 63.0°F17.2°C 49% 4.0 mph SE6.4 kmh SE 10.0 mph16.1 kmh 29.76 in1007.8 mb 0.00 in0.0 mm 0.00 in0.0 mm 0.00 in0.0 mm
09:40 PM 83.6°F28.7°C 62.4°F16.9°C 49% 5.0 mph S8.0 kmh S 10.0 mph16.1 kmh 29.76 in1007.8 mb 0.00 in0.0 mm 0.00 in0.0 mm 0.00 in0.0 mm
09:41 PM 83.6°F28.7°C 62.0°F16.7°C 49% 10.0 mph SE16.1 kmh SE 10.0 mph16.1 kmh 29.76 in1007.8 mb 0.00 in0.0 mm 0.00 in0.0 mm 0.00 in0.0 mm
09:45 PM 83.4°F28.6°C 62.8°F17.1°C 50% 6.0 mph S9.7 kmh S 10.0 mph16.1 kmh 29.76 in1007.8 mb 0.00 in0.0 mm 0.00 in0.0 mm 0.00 in0.0 mm
09:46 PM 83.4°F28.6°C 63.0°F17.2°C 50% 7.0 mph SSE11.3 kmh SSE 10.0 mph16.1 kmh 29.76 in1007.8 mb 0.00 in0.0 mm 0.00 in0.0 mm 0.00 in0.0 mm
09:50 PM 83.2°F28.4°C 63.2°F17.3°C 51% 5.0 mph S8.0 kmh S 10.0 mph16.1 kmh 29.76 in1007.8 mb 0.00 in0.0 mm 0.00 in0.0 mm 0.00 in0.0 mm
09:51 PM 83.2°F28.4°C 63.0°F17.2°C 51% 7.0 mph SE11.3 kmh SE 10.0 mph16.1 kmh 29.76 in1007.8 mb 0.00 in0.0 mm 0.00 in0.0 mm 0.00 in0.0 mm
09:55 PM 83.0°F28.3°C 63.0°F17.2°C 51% 5.0 mph SSE8.0 kmh SSE 11.0 mph17.7 kmh 29.76 in1007.8 mb 0.00 in0.0 mm 0.00 in0.0 mm 0.00 in0.0 mm
09:56 PM 82.9°F28.3°C 63.0°F17.2°C 51% 6.0 mph S9.7 kmh S 10.0 mph16.1 kmh 29.76 in1007.8 mb 0.00 in0.0 mm 0.00 in0.0 mm 0.00 in0.0 mm
10:00 PM 82.7°F28.2°C 63.3°F17.4°C 52% 6.0 mph S9.7 kmh S 11.0 mph17.7 kmh 29.76 in1007.8 mb 0.00 in0.0 mm 0.00 in0.0 mm 0.00 in0.0 mm
10:01 PM 82.7°F28.2°C 63.0°F17.2°C 52% 2.0 mph S3.2 kmh S 10.0 mph16.1 kmh 29.76 in1007.8 mb 0.00 in0.0 mm 0.00 in0.0 mm 0.00 in0.0 mm
10:05 PM 82.4°F28.0°C 63.0°F17.2°C 52% 6.0 mph S9.7 kmh S 12.0 mph19.3 kmh 29.76 in1007.8 mb 0.00 in0.0 mm 0.00 in0.0 mm 0.00 in0.0 mm
10:06 PM 82.4°F28.0°C 63.0°F17.2°C 52% 10.0 mph S16.1 kmh S 11.0 mph17.7 kmh 29.76 in1007.8 mb 0.00 in0.0 mm 0.00 in0.0 mm 0.00 in0.0 mm
10:10 PM 82.0°F27.8°C 62.6°F17.0°C 52% 7.0 mph SSE11.3 kmh SSE 13.0 mph20.9 kmh 29.76 in1007.8 mb 0.00 in0.0 mm 0.00 in0.0 mm 0.00 in0.0 mm
10:11 PM 82.0°F27.8°C 63.0°F17.2°C 52% 5.0 mph SSE8.0 kmh SSE 11.0 mph17.7 kmh 29.76 in1007.8 mb 0.00 in0.0 mm 0.00 in0.0 mm 0.00 in0.0 mm
10:15 PM 81.7°F27.6°C 62.4°F16.9°C 52% 7.0 mph SSE11.3 kmh SSE 14.0 mph22.5 kmh 29.77 in1008.1 mb 0.00 in0.0 mm 0.00 in0.0 mm 0.00 in0.0 mm
10:16 PM 81.6°F27.6°C 62.0°F16.7°C 52% 7.0 mph SSW11.3 kmh SSW 15.0 mph24.1 kmh 29.77 in1008.1 mb 0.00 in0.0 mm 0.00 in0.0 mm 0.00 in0.0 mm
10:20 PM 81.5°F27.5°C 62.7°F17.1°C 53% 8.0 mph SSE12.9 kmh SSE 19.0 mph30.6 kmh 29.77 in1008.1 mb 0.00 in0.0 mm 0.00 in0.0 mm 0.00 in0.0 mm
10:21 PM 81.5°F27.5°C 63.0°F17.2°C 53% 9.0 mph SE14.5 kmh SE 20.0 mph32.2 kmh 29.77 in1008.1 mb 0.00 in0.0 mm 0.00 in0.0 mm 0.00 in0.0 mm
10:25 PM 81.2°F27.3°C 63.0°F17.2°C 54% 9.0 mph SSE14.5 kmh SSE 20.0 mph32.2 kmh 29.77 in1008.1 mb 0.00 in0.0 mm 0.00 in0.0 mm 0.00 in0.0 mm
10:26 PM 81.1°F27.3°C 63.0°F17.2°C 54% 9.0 mph SSE14.5 kmh SSE 20.0 mph32.2 kmh 29.77 in1008.1 mb 0.00 in0.0 mm 0.00 in0.0 mm 0.00 in0.0 mm
10:30 PM 80.9°F27.2°C 62.7°F17.1°C 54% 9.0 mph SE14.5 kmh SE 20.0 mph32.2 kmh 29.77 in1008.1 mb 0.00 in0.0 mm 0.00 in0.0 mm 0.00 in0.0 mm
10:31 PM 80.9°F27.2°C 63.0°F17.2°C 54% 6.0 mph SSE9.7 kmh SSE 19.0 mph30.6 kmh 29.77 in1008.1 mb 0.00 in0.0 mm 0.00 in0.0 mm 0.00 in0.0 mm
10:35 PM 80.7°F27.1°C 63.0°F17.2°C 55% 7.0 mph SE11.3 kmh SE 14.0 mph22.5 kmh 29.77 in1008.1 mb 0.00 in0.0 mm 0.00 in0.0 mm 0.00 in0.0 mm
10:36 PM 80.7°F27.1°C 63.0°F17.2°C 55% 6.0 mph SE9.7 kmh SE 12.0 mph19.3 kmh 29.77 in1008.1 mb 0.00 in0.0 mm 0.00 in0.0 mm 0.00 in0.0 mm
10:40 PM 80.5°F26.9°C 63.4°F17.4°C 56% 6.0 mph SE9.7 kmh SE 13.0 mph20.9 kmh 29.77 in1008.1 mb 0.00 in0.0 mm 0.00 in0.0 mm 0.00 in0.0 mm
10:41 PM 80.5°F26.9°C 63.0°F17.2°C 56% 6.0 mph S9.7 kmh S 13.0 mph20.9 kmh 29.77 in1008.1 mb 0.00 in0.0 mm 0.00 in0.0 mm 0.00 in0.0 mm
10:45 PM 80.3°F26.8°C 63.2°F17.3°C 56% 6.0 mph SSE9.7 kmh SSE 16.0 mph25.7 kmh 29.78 in1008.5 mb 0.00 in0.0 mm 0.00 in0.0 mm 0.00 in0.0 mm
10:46 PM 80.2°F26.8°C 63.0°F17.2°C 56% 8.0 mph SSE12.9 kmh SSE 16.0 mph25.7 kmh 29.78 in1008.5 mb 0.00 in0.0 mm 0.00 in0.0 mm 0.00 in0.0 mm
10:50 PM 79.8°F26.6°C 62.7°F17.1°C 56% 8.0 mph SSE12.9 kmh SSE 18.0 mph29.0 kmh 29.78 in1008.5 mb 0.00 in0.0 mm 0.00 in0.0 mm 0.00 in0.0 mm
10:51 PM 79.8°F26.6°C 63.0°F17.2°C 56% 6.0 mph SSW9.7 kmh SSW 17.0 mph27.4 kmh 29.78 in1008.5 mb 0.00 in0.0 mm 0.00 in0.0 mm 0.00 in0.0 mm
10:55 PM 79.3°F26.3°C 63.2°F17.3°C 58% 10.0 mph SE16.1 kmh SE 19.0 mph30.6 kmh 29.78 in1008.5 mb 0.00 in0.0 mm 0.00 in0.0 mm 0.00 in0.0 mm
10:56 PM 79.2°F26.2°C 63.0°F17.2°C 58% 13.0 mph SSE20.9 kmh SSE 19.0 mph30.6 kmh 29.78 in1008.5 mb 0.00 in0.0 mm 0.00 in0.0 mm 0.00 in0.0 mm
11:00 PM 78.7°F25.9°C 62.7°F17.1°C 58% 10.0 mph SE16.1 kmh SE 19.0 mph30.6 kmh 29.78 in1008.5 mb 0.00 in0.0 mm 0.00 in0.0 mm 0.00 in0.0 mm
11:01 PM 78.7°F25.9°C 63.0°F17.2°C 58% 7.0 mph SE11.3 kmh SE 19.0 mph30.6 kmh 29.78 in1008.5 mb 0.00 in0.0 mm 0.00 in0.0 mm 0.00 in0.0 mm
11:05 PM 78.5°F25.8°C 61.5°F16.4°C 56% 9.0 mph SE14.5 kmh SE 17.0 mph27.4 kmh 29.77 in1008.1 mb 0.00 in0.0 mm 0.00 in0.0 mm 0.00 in0.0 mm
11:06 PM 78.5°F25.8°C 61.0°F16.1°C 56% 12.0 mph SE19.3 kmh SE 18.0 mph29.0 kmh 29.77 in1008.1 mb 0.00 in0.0 mm 0.00 in0.0 mm 0.00 in0.0 mm
11:10 PM 78.4°F25.8°C 61.4°F16.3°C 56% 9.0 mph SE14.5 kmh SE 18.0 mph29.0 kmh 29.77 in1008.1 mb 0.00 in0.0 mm 0.00 in0.0 mm 0.00 in0.0 mm
11:11 PM 78.4°F25.8°C 61.0°F16.1°C 56% 6.0 mph S9.7 kmh S 15.0 mph24.1 kmh 29.77 in1008.1 mb 0.00 in0.0 mm 0.00 in0.0 mm 0.00 in0.0 mm
11:15 PM 78.5°F25.8°C 61.5°F16.4°C 56% 9.0 mph SE14.5 kmh SE 19.0 mph30.6 kmh 29.78 in1008.5 mb 0.00 in0.0 mm 0.00 in0.0 mm 0.00 in0.0 mm
11:16 PM 78.5°F25.8°C 61.0°F16.1°C 56% 7.0 mph SE11.3 kmh SE 18.0 mph29.0 kmh 29.78 in1008.5 mb 0.00 in0.0 mm 0.00 in0.0 mm 0.00 in0.0 mm
11:20 PM 78.6°F25.9°C 61.6°F16.4°C 56% 8.0 mph SE12.9 kmh SE 19.0 mph30.6 kmh 29.78 in1008.5 mb 0.00 in0.0 mm 0.00 in0.0 mm 0.00 in0.0 mm
11:21 PM 78.6°F25.9°C 62.0°F16.7°C 56% 7.0 mph SSE11.3 kmh SSE 16.0 mph25.7 kmh 29.78 in1008.5 mb 0.00 in0.0 mm 0.00 in0.0 mm 0.00 in0.0 mm
11:25 PM 78.9°F26.1°C 61.4°F16.3°C 55% 7.0 mph SE11.3 kmh SE 14.0 mph22.5 kmh 29.78 in1008.5 mb 0.00 in0.0 mm 0.00 in0.0 mm 0.00 in0.0 mm
11:26 PM 79.0°F26.1°C 61.0°F16.1°C 55% 10.0 mph SSE16.1 kmh SSE 15.0 mph24.1 kmh 29.78 in1008.5 mb 0.00 in0.0 mm 0.00 in0.0 mm 0.00 in0.0 mm
11:30 PM 79.2°F26.2°C 61.1°F16.2°C 54% 8.0 mph SE12.9 kmh SE 14.0 mph22.5 kmh 29.78 in1008.5 mb 0.00 in0.0 mm 0.00 in0.0 mm 0.00 in0.0 mm
11:31 PM 79.2°F26.2°C 61.0°F16.1°C 54% 7.0 mph SSE11.3 kmh SSE 15.0 mph24.1 kmh 29.78 in1008.5 mb 0.00 in0.0 mm 0.00 in0.0 mm 0.00 in0.0 mm
11:35 PM 79.4°F26.3°C 61.3°F16.3°C 54% 7.0 mph SE11.3 kmh SE 14.0 mph22.5 kmh 29.78 in1008.5 mb 0.00 in0.0 mm 0.00 in0.0 mm 0.00 in0.0 mm
11:36 PM 79.4°F26.3°C 62.0°F16.7°C 55% 4.0 mph SE6.4 kmh SE 12.0 mph19.3 kmh 29.78 in1008.5 mb 0.00 in0.0 mm 0.00 in0.0 mm 0.00 in0.0 mm
11:40 PM 79.5°F26.4°C 61.4°F16.3°C 54% 7.0 mph SE11.3 kmh SE 12.0 mph19.3 kmh 29.78 in1008.5 mb 0.00 in0.0 mm 0.00 in0.0 mm 0.00 in0.0 mm
11:41 PM 79.5°F26.4°C 61.0°F16.1°C 54% 9.0 mph SE14.5 kmh SE 12.0 mph19.3 kmh 29.78 in1008.5 mb 0.00 in0.0 mm 0.00 in0.0 mm 0.00 in0.0 mm
11:45 PM 79.5°F26.4°C 61.9°F16.6°C 55% 6.0 mph SE9.7 kmh SE 12.0 mph19.3 kmh 29.79 in1008.8 mb 0.00 in0.0 mm 0.00 in0.0 mm 0.00 in0.0 mm
11:46 PM 79.5°F26.4°C 62.0°F16.7°C 55% 7.0 mph SSE11.3 kmh SSE 11.0 mph17.7 kmh 29.79 in1008.8 mb 0.00 in0.0 mm 0.00 in0.0 mm 0.00 in0.0 mm
11:50 PM 79.4°F26.3°C 62.3°F16.8°C 56% 4.0 mph SE6.4 kmh SE 11.0 mph17.7 kmh 29.79 in1008.8 mb 0.00 in0.0 mm 0.00 in0.0 mm 0.00 in0.0 mm
11:51 PM 79.4°F26.3°C 62.0°F16.7°C 56% 3.0 mph ENE4.8 kmh ENE 11.0 mph17.7 kmh 29.79 in1008.8 mb 0.00 in0.0 mm 0.00 in0.0 mm 0.00 in0.0 mm
11:55 PM 79.2°F26.2°C 61.6°F16.4°C 55% 3.0 mph SE4.8 kmh SE 9.0 mph14.5 kmh 29.79 in1008.8 mb 0.00 in0.0 mm 0.00 in0.0 mm 0.00 in0.0 mm
11:56 PM 79.2°F26.2°C 62.0°F16.7°C 56% 4.0 mph ESE6.4 kmh ESE 9.0 mph14.5 kmh 29.79 in1008.8 mb 0.00 in0.0 mm 0.00 in0.0 mm 0.00 in0.0 mm